<?xml version="1.0" encoding="UTF-8" standalone="no" ?>
<gpx xmlns="http://www.topografix.com/GPX/1/1" xmlns:xsi="http://www.w3.org/2001/XMLSchema-instance" xsi:schemaLocation="http://www.topografix.com/GPX/1/1 http://www.topografix.com/GPX/1/1/gpx.xsd" version="1.1" creator="VisuGPX - https://www.visugpx.com">
  <metadata>
    <name>Vacances 2021</name>
  </metadata>
  <trk>
    <name><![CDATA[Journal actif: 2021-07-19 10:21]]></name>
    <trkseg>
      <trkpt lat="48.04097" lon="7.30843">
        <ele>204.9</ele>
        <time>2021-07-19T12:21:06Z</time>
      </trkpt>
      <trkpt lat="48.04083" lon="7.30843">
        <ele>214.51</ele>
        <time>2021-07-19T12:21:28Z</time>
      </trkpt>
      <trkpt lat="48.04076" lon="7.30852">
        <ele>218.84</ele>
        <time>2021-07-19T12:22:24Z</time>
      </trkpt>
      <trkpt lat="48.04078" lon="7.3086">
        <ele>217.88</ele>
        <time>2021-07-19T12:22:45Z</time>
      </trkpt>
      <trkpt lat="48.04078" lon="7.3086">
        <ele>217.88</ele>
        <time>2021-07-19T12:22:47Z</time>
      </trkpt>
      <trkpt lat="48.04081" lon="7.30891">
        <ele>216.43</ele>
        <time>2021-07-19T12:22:59Z</time>
      </trkpt>
      <trkpt lat="48.04075" lon="7.30936">
        <ele>213.55</ele>
        <time>2021-07-19T12:23:14Z</time>
      </trkpt>
      <trkpt lat="48.04074" lon="7.30942">
        <ele>212.11</ele>
        <time>2021-07-19T12:23:32Z</time>
      </trkpt>
      <trkpt lat="48.04074" lon="7.30942">
        <ele>211.63</ele>
        <time>2021-07-19T12:24:42Z</time>
      </trkpt>
      <trkpt lat="48.04073" lon="7.30953">
        <ele>210.67</ele>
        <time>2021-07-19T12:26:37Z</time>
      </trkpt>
      <trkpt lat="48.04066" lon="7.30956">
        <ele>210.19</ele>
        <time>2021-07-19T12:26:42Z</time>
      </trkpt>
      <trkpt lat="48.04061" lon="7.30957">
        <ele>210.19</ele>
        <time>2021-07-19T12:26:45Z</time>
      </trkpt>
      <trkpt lat="48.04068" lon="7.30974">
        <ele>208.74</ele>
        <time>2021-07-19T12:26:53Z</time>
      </trkpt>
      <trkpt lat="48.0407" lon="7.30971">
        <ele>209.22</ele>
        <time>2021-07-19T12:27:05Z</time>
      </trkpt>
      <trkpt lat="48.0407" lon="7.30971">
        <ele>209.22</ele>
        <time>2021-07-19T12:31:18Z</time>
      </trkpt>
      <trkpt lat="48.04072" lon="7.30971">
        <ele>208.74</ele>
        <time>2021-07-19T12:34:56Z</time>
      </trkpt>
      <trkpt lat="48.04072" lon="7.3097">
        <ele>208.26</ele>
        <time>2021-07-19T12:36:58Z</time>
      </trkpt>
      <trkpt lat="48.04072" lon="7.3097">
        <ele>208.26</ele>
        <time>2021-07-19T12:40:20Z</time>
      </trkpt>
      <trkpt lat="48.04072" lon="7.3097">
        <ele>208.74</ele>
        <time>2021-07-19T12:43:27Z</time>
      </trkpt>
      <trkpt lat="48.04073" lon="7.30965">
        <ele>208.74</ele>
        <time>2021-07-19T12:44:21Z</time>
      </trkpt>
      <trkpt lat="48.04073" lon="7.30965">
        <ele>208.74</ele>
        <time>2021-07-19T12:46:27Z</time>
      </trkpt>
      <trkpt lat="48.04083" lon="7.30959">
        <ele>208.26</ele>
        <time>2021-07-19T12:46:53Z</time>
      </trkpt>
      <trkpt lat="48.04123" lon="7.30978">
        <ele>205.86</ele>
        <time>2021-07-19T12:47:06Z</time>
      </trkpt>
      <trkpt lat="48.04132" lon="7.30982">
        <ele>205.38</ele>
        <time>2021-07-19T12:47:17Z</time>
      </trkpt>
      <trkpt lat="48.04145" lon="7.30985">
        <ele>205.86</ele>
        <time>2021-07-19T12:47:33Z</time>
      </trkpt>
      <trkpt lat="48.04157" lon="7.30981">
        <ele>205.86</ele>
        <time>2021-07-19T12:47:46Z</time>
      </trkpt>
      <trkpt lat="48.04188" lon="7.31002">
        <ele>204.42</ele>
        <time>2021-07-19T12:47:59Z</time>
      </trkpt>
      <trkpt lat="48.04196" lon="7.31005">
        <ele>205.38</ele>
        <time>2021-07-19T12:48:14Z</time>
      </trkpt>
      <trkpt lat="48.042" lon="7.3101">
        <ele>204.9</ele>
        <time>2021-07-19T12:48:26Z</time>
      </trkpt>
      <trkpt lat="48.042" lon="7.31013">
        <ele>204.9</ele>
        <time>2021-07-19T12:48:28Z</time>
      </trkpt>
      <trkpt lat="48.04199" lon="7.31016">
        <ele>204.9</ele>
        <time>2021-07-19T12:48:29Z</time>
      </trkpt>
      <trkpt lat="48.04198" lon="7.3102">
        <ele>204.9</ele>
        <time>2021-07-19T12:48:30Z</time>
      </trkpt>
      <trkpt lat="48.04196" lon="7.31024">
        <ele>204.9</ele>
        <time>2021-07-19T12:48:31Z</time>
      </trkpt>
      <trkpt lat="48.0417" lon="7.31106">
        <ele>204.42</ele>
        <time>2021-07-19T12:48:45Z</time>
      </trkpt>
      <trkpt lat="48.04154" lon="7.31138">
        <ele>204.42</ele>
        <time>2021-07-19T12:48:55Z</time>
      </trkpt>
      <trkpt lat="48.04154" lon="7.31138">
        <ele>203.94</ele>
        <time>2021-07-19T12:48:56Z</time>
      </trkpt>
      <trkpt lat="48.04146" lon="7.31138">
        <ele>203.46</ele>
        <time>2021-07-19T12:48:58Z</time>
      </trkpt>
      <trkpt lat="48.04141" lon="7.31138">
        <ele>203.46</ele>
        <time>2021-07-19T12:48:59Z</time>
      </trkpt>
      <trkpt lat="48.04094" lon="7.31136">
        <ele>201.53</ele>
        <time>2021-07-19T12:49:09Z</time>
      </trkpt>
      <trkpt lat="48.04092" lon="7.31136">
        <ele>201.53</ele>
        <time>2021-07-19T12:49:11Z</time>
      </trkpt>
      <trkpt lat="48.0409" lon="7.31136">
        <ele>201.53</ele>
        <time>2021-07-19T12:49:12Z</time>
      </trkpt>
      <trkpt lat="48.04082" lon="7.31136">
        <ele>201.53</ele>
        <time>2021-07-19T12:49:16Z</time>
      </trkpt>
      <trkpt lat="48.04082" lon="7.31136">
        <ele>201.53</ele>
        <time>2021-07-19T12:49:17Z</time>
      </trkpt>
      <trkpt lat="48.04079" lon="7.31136">
        <ele>201.05</ele>
        <time>2021-07-19T12:49:30Z</time>
      </trkpt>
      <trkpt lat="48.04073" lon="7.31135">
        <ele>200.57</ele>
        <time>2021-07-19T12:51:06Z</time>
      </trkpt>
      <trkpt lat="48.04019" lon="7.31129">
        <ele>203.94</ele>
        <time>2021-07-19T12:51:14Z</time>
      </trkpt>
      <trkpt lat="48.03865" lon="7.31119">
        <ele>209.22</ele>
        <time>2021-07-19T12:51:30Z</time>
      </trkpt>
      <trkpt lat="48.03721" lon="7.31134">
        <ele>200.57</ele>
        <time>2021-07-19T12:51:42Z</time>
      </trkpt>
      <trkpt lat="48.03433" lon="7.31179">
        <ele>198.65</ele>
        <time>2021-07-19T12:52:02Z</time>
      </trkpt>
      <trkpt lat="48.03246" lon="7.31174">
        <ele>196.73</ele>
        <time>2021-07-19T12:52:15Z</time>
      </trkpt>
      <trkpt lat="48.03183" lon="7.31178">
        <ele>195.28</ele>
        <time>2021-07-19T12:52:20Z</time>
      </trkpt>
      <trkpt lat="48.03171" lon="7.31181">
        <ele>195.28</ele>
        <time>2021-07-19T12:52:21Z</time>
      </trkpt>
      <trkpt lat="48.03161" lon="7.31188">
        <ele>194.8</ele>
        <time>2021-07-19T12:52:22Z</time>
      </trkpt>
      <trkpt lat="48.03151" lon="7.31197">
        <ele>194.32</ele>
        <time>2021-07-19T12:52:23Z</time>
      </trkpt>
      <trkpt lat="48.0314" lon="7.31207">
        <ele>193.84</ele>
        <time>2021-07-19T12:52:24Z</time>
      </trkpt>
      <trkpt lat="48.02997" lon="7.3138">
        <ele>191.92</ele>
        <time>2021-07-19T12:52:39Z</time>
      </trkpt>
      <trkpt lat="48.02885" lon="7.31487">
        <ele>190</ele>
        <time>2021-07-19T12:52:49Z</time>
      </trkpt>
      <trkpt lat="48.02787" lon="7.31605">
        <ele>191.44</ele>
        <time>2021-07-19T12:52:58Z</time>
      </trkpt>
      <trkpt lat="48.02637" lon="7.31812">
        <ele>191.92</ele>
        <time>2021-07-19T12:53:11Z</time>
      </trkpt>
      <trkpt lat="48.02473" lon="7.32069">
        <ele>200.09</ele>
        <time>2021-07-19T12:53:27Z</time>
      </trkpt>
      <trkpt lat="48.02367" lon="7.32346">
        <ele>198.17</ele>
        <time>2021-07-19T12:53:39Z</time>
      </trkpt>
      <trkpt lat="48.02269" lon="7.32686">
        <ele>193.36</ele>
        <time>2021-07-19T12:53:56Z</time>
      </trkpt>
      <trkpt lat="48.02253" lon="7.32743">
        <ele>193.36</ele>
        <time>2021-07-19T12:54:01Z</time>
      </trkpt>
      <trkpt lat="48.02251" lon="7.32751">
        <ele>193.36</ele>
        <time>2021-07-19T12:54:02Z</time>
      </trkpt>
      <trkpt lat="48.02237" lon="7.3276">
        <ele>192.88</ele>
        <time>2021-07-19T12:54:04Z</time>
      </trkpt>
      <trkpt lat="48.02231" lon="7.32766">
        <ele>192.88</ele>
        <time>2021-07-19T12:54:05Z</time>
      </trkpt>
      <trkpt lat="48.02229" lon="7.32774">
        <ele>192.88</ele>
        <time>2021-07-19T12:54:06Z</time>
      </trkpt>
      <trkpt lat="48.02227" lon="7.3278">
        <ele>192.88</ele>
        <time>2021-07-19T12:54:07Z</time>
      </trkpt>
      <trkpt lat="48.02231" lon="7.32787">
        <ele>192.88</ele>
        <time>2021-07-19T12:54:08Z</time>
      </trkpt>
      <trkpt lat="48.02235" lon="7.32809">
        <ele>193.36</ele>
        <time>2021-07-19T12:54:09Z</time>
      </trkpt>
      <trkpt lat="48.02232" lon="7.32818">
        <ele>193.36</ele>
        <time>2021-07-19T12:54:10Z</time>
      </trkpt>
      <trkpt lat="48.02228" lon="7.32828">
        <ele>193.36</ele>
        <time>2021-07-19T12:54:11Z</time>
      </trkpt>
      <trkpt lat="48.02165" lon="7.33008">
        <ele>194.8</ele>
        <time>2021-07-19T12:54:26Z</time>
      </trkpt>
      <trkpt lat="48.02158" lon="7.33029">
        <ele>195.28</ele>
        <time>2021-07-19T12:54:30Z</time>
      </trkpt>
      <trkpt lat="48.02156" lon="7.33033">
        <ele>194.8</ele>
        <time>2021-07-19T12:54:31Z</time>
      </trkpt>
      <trkpt lat="48.0216" lon="7.33031">
        <ele>194.8</ele>
        <time>2021-07-19T12:54:32Z</time>
      </trkpt>
      <trkpt lat="48.02166" lon="7.33028">
        <ele>195.28</ele>
        <time>2021-07-19T12:54:37Z</time>
      </trkpt>
      <trkpt lat="48.0218" lon="7.33014">
        <ele>195.77</ele>
        <time>2021-07-19T12:54:48Z</time>
      </trkpt>
      <trkpt lat="48.0218" lon="7.33014">
        <ele>195.77</ele>
        <time>2021-07-19T12:58:17Z</time>
      </trkpt>
      <trkpt lat="48.02182" lon="7.33007">
        <ele>195.77</ele>
        <time>2021-07-19T12:59:07Z</time>
      </trkpt>
      <trkpt lat="48.02183" lon="7.32989">
        <ele>195.77</ele>
        <time>2021-07-19T12:59:18Z</time>
      </trkpt>
      <trkpt lat="48.02183" lon="7.32989">
        <ele>196.25</ele>
        <time>2021-07-19T12:59:38Z</time>
      </trkpt>
      <trkpt lat="48.02183" lon="7.32989">
        <ele>196.25</ele>
        <time>2021-07-19T12:59:39Z</time>
      </trkpt>
      <trkpt lat="48.02174" lon="7.32983">
        <ele>196.25</ele>
        <time>2021-07-19T12:59:40Z</time>
      </trkpt>
      <trkpt lat="48.02173" lon="7.32986">
        <ele>196.25</ele>
        <time>2021-07-19T12:59:41Z</time>
      </trkpt>
      <trkpt lat="48.02172" lon="7.32991">
        <ele>196.25</ele>
        <time>2021-07-19T12:59:42Z</time>
      </trkpt>
      <trkpt lat="48.02167" lon="7.33004">
        <ele>196.25</ele>
        <time>2021-07-19T12:59:43Z</time>
      </trkpt>
      <trkpt lat="48.02167" lon="7.33004">
        <ele>196.25</ele>
        <time>2021-07-19T12:59:44Z</time>
      </trkpt>
      <trkpt lat="48.02132" lon="7.33095">
        <ele>195.28</ele>
        <time>2021-07-19T12:59:52Z</time>
      </trkpt>
      <trkpt lat="48.02049" lon="7.33253">
        <ele>194.32</ele>
        <time>2021-07-19T13:00:02Z</time>
      </trkpt>
      <trkpt lat="48.01896" lon="7.33446">
        <ele>196.73</ele>
        <time>2021-07-19T13:00:15Z</time>
      </trkpt>
      <trkpt lat="48.01753" lon="7.33551">
        <ele>198.65</ele>
        <time>2021-07-19T13:00:27Z</time>
      </trkpt>
      <trkpt lat="48.01571" lon="7.33623">
        <ele>193.84</ele>
        <time>2021-07-19T13:00:38Z</time>
      </trkpt>
      <trkpt lat="48.01395" lon="7.33638">
        <ele>197.21</ele>
        <time>2021-07-19T13:00:49Z</time>
      </trkpt>
      <trkpt lat="48.01121" lon="7.33668">
        <ele>194.32</ele>
        <time>2021-07-19T13:01:04Z</time>
      </trkpt>
      <trkpt lat="48.00907" lon="7.33774">
        <ele>192.88</ele>
        <time>2021-07-19T13:01:16Z</time>
      </trkpt>
      <trkpt lat="48.00692" lon="7.3393">
        <ele>192.4</ele>
        <time>2021-07-19T13:01:28Z</time>
      </trkpt>
      <trkpt lat="48.00432" lon="7.34163">
        <ele>194.8</ele>
        <time>2021-07-19T13:01:45Z</time>
      </trkpt>
      <trkpt lat="48.00274" lon="7.34267">
        <ele>196.73</ele>
        <time>2021-07-19T13:01:54Z</time>
      </trkpt>
      <trkpt lat="48.00198" lon="7.34391">
        <ele>200.57</ele>
        <time>2021-07-19T13:02:00Z</time>
      </trkpt>
      <trkpt lat="48.00144" lon="7.346">
        <ele>202.01</ele>
        <time>2021-07-19T13:02:08Z</time>
      </trkpt>
      <trkpt lat="48.00053" lon="7.35028">
        <ele>202.98</ele>
        <time>2021-07-19T13:02:23Z</time>
      </trkpt>
      <trkpt lat="48.00033" lon="7.35333">
        <ele>201.53</ele>
        <time>2021-07-19T13:02:33Z</time>
      </trkpt>
      <trkpt lat="48.00019" lon="7.35853">
        <ele>201.53</ele>
        <time>2021-07-19T13:02:50Z</time>
      </trkpt>
      <trkpt lat="47.9997" lon="7.36048">
        <ele>201.53</ele>
        <time>2021-07-19T13:02:57Z</time>
      </trkpt>
      <trkpt lat="47.9986" lon="7.36296">
        <ele>201.05</ele>
        <time>2021-07-19T13:03:07Z</time>
      </trkpt>
      <trkpt lat="47.9977" lon="7.36567">
        <ele>204.42</ele>
        <time>2021-07-19T13:03:17Z</time>
      </trkpt>
      <trkpt lat="47.99559" lon="7.3702">
        <ele>206.34</ele>
        <time>2021-07-19T13:03:35Z</time>
      </trkpt>
      <trkpt lat="47.99493" lon="7.37242">
        <ele>207.3</ele>
        <time>2021-07-19T13:03:43Z</time>
      </trkpt>
      <trkpt lat="47.99438" lon="7.37446">
        <ele>207.3</ele>
        <time>2021-07-19T13:03:53Z</time>
      </trkpt>
      <trkpt lat="47.99359" lon="7.37644">
        <ele>203.46</ele>
        <time>2021-07-19T13:04:03Z</time>
      </trkpt>
      <trkpt lat="47.9935" lon="7.37661">
        <ele>202.98</ele>
        <time>2021-07-19T13:04:07Z</time>
      </trkpt>
      <trkpt lat="47.99334" lon="7.37663">
        <ele>202.98</ele>
        <time>2021-07-19T13:04:08Z</time>
      </trkpt>
      <trkpt lat="47.99329" lon="7.37667">
        <ele>202.49</ele>
        <time>2021-07-19T13:04:09Z</time>
      </trkpt>
      <trkpt lat="47.99332" lon="7.37702">
        <ele>202.49</ele>
        <time>2021-07-19T13:04:10Z</time>
      </trkpt>
      <trkpt lat="47.99332" lon="7.37702">
        <ele>203.46</ele>
        <time>2021-07-19T13:04:11Z</time>
      </trkpt>
      <trkpt lat="47.99328" lon="7.37715">
        <ele>204.42</ele>
        <time>2021-07-19T13:04:12Z</time>
      </trkpt>
      <trkpt lat="47.99325" lon="7.37724">
        <ele>204.9</ele>
        <time>2021-07-19T13:04:13Z</time>
      </trkpt>
      <trkpt lat="47.99325" lon="7.37724">
        <ele>205.38</ele>
        <time>2021-07-19T13:04:14Z</time>
      </trkpt>
      <trkpt lat="47.99318" lon="7.37745">
        <ele>205.38</ele>
        <time>2021-07-19T13:04:15Z</time>
      </trkpt>
      <trkpt lat="47.99318" lon="7.37745">
        <ele>205.86</ele>
        <time>2021-07-19T13:04:16Z</time>
      </trkpt>
      <trkpt lat="47.99314" lon="7.37758">
        <ele>205.86</ele>
        <time>2021-07-19T13:04:17Z</time>
      </trkpt>
      <trkpt lat="47.99309" lon="7.37772">
        <ele>205.86</ele>
        <time>2021-07-19T13:04:18Z</time>
      </trkpt>
      <trkpt lat="47.99251" lon="7.37935">
        <ele>207.3</ele>
        <time>2021-07-19T13:04:27Z</time>
      </trkpt>
      <trkpt lat="47.99211" lon="7.38065">
        <ele>201.05</ele>
        <time>2021-07-19T13:04:35Z</time>
      </trkpt>
      <trkpt lat="47.99209" lon="7.38073">
        <ele>201.53</ele>
        <time>2021-07-19T13:04:36Z</time>
      </trkpt>
      <trkpt lat="47.99207" lon="7.3808">
        <ele>202.49</ele>
        <time>2021-07-19T13:04:37Z</time>
      </trkpt>
      <trkpt lat="47.99188" lon="7.38094">
        <ele>203.94</ele>
        <time>2021-07-19T13:04:40Z</time>
      </trkpt>
      <trkpt lat="47.99185" lon="7.38103">
        <ele>204.42</ele>
        <time>2021-07-19T13:04:41Z</time>
      </trkpt>
      <trkpt lat="47.99184" lon="7.38105">
        <ele>204.42</ele>
        <time>2021-07-19T13:04:42Z</time>
      </trkpt>
      <trkpt lat="47.99184" lon="7.38105">
        <ele>203.94</ele>
        <time>2021-07-19T13:04:43Z</time>
      </trkpt>
      <trkpt lat="47.99192" lon="7.38124">
        <ele>203.94</ele>
        <time>2021-07-19T13:04:44Z</time>
      </trkpt>
      <trkpt lat="47.99193" lon="7.38127">
        <ele>203.46</ele>
        <time>2021-07-19T13:04:45Z</time>
      </trkpt>
      <trkpt lat="47.99199" lon="7.38127">
        <ele>203.46</ele>
        <time>2021-07-19T13:04:46Z</time>
      </trkpt>
      <trkpt lat="47.99207" lon="7.38127">
        <ele>203.46</ele>
        <time>2021-07-19T13:04:47Z</time>
      </trkpt>
      <trkpt lat="47.9921" lon="7.38127">
        <ele>203.94</ele>
        <time>2021-07-19T13:04:48Z</time>
      </trkpt>
      <trkpt lat="47.9921" lon="7.38127">
        <ele>204.42</ele>
        <time>2021-07-19T13:04:49Z</time>
      </trkpt>
      <trkpt lat="47.99234" lon="7.38116">
        <ele>204.42</ele>
        <time>2021-07-19T13:04:50Z</time>
      </trkpt>
      <trkpt lat="47.99338" lon="7.38138">
        <ele>206.82</ele>
        <time>2021-07-19T13:04:59Z</time>
      </trkpt>
      <trkpt lat="47.99414" lon="7.3815">
        <ele>203.94</ele>
        <time>2021-07-19T13:05:04Z</time>
      </trkpt>
      <trkpt lat="47.99427" lon="7.38153">
        <ele>203.94</ele>
        <time>2021-07-19T13:05:05Z</time>
      </trkpt>
      <trkpt lat="47.99442" lon="7.38147">
        <ele>203.46</ele>
        <time>2021-07-19T13:05:06Z</time>
      </trkpt>
      <trkpt lat="47.99572" lon="7.38087">
        <ele>203.94</ele>
        <time>2021-07-19T13:05:16Z</time>
      </trkpt>
      <trkpt lat="47.99591" lon="7.38069">
        <ele>203.94</ele>
        <time>2021-07-19T13:05:17Z</time>
      </trkpt>
      <trkpt lat="47.99591" lon="7.38069">
        <ele>203.94</ele>
        <time>2021-07-19T13:05:18Z</time>
      </trkpt>
      <trkpt lat="47.99661" lon="7.37985">
        <ele>204.9</ele>
        <time>2021-07-19T13:05:25Z</time>
      </trkpt>
      <trkpt lat="47.99677" lon="7.3798">
        <ele>204.9</ele>
        <time>2021-07-19T13:05:26Z</time>
      </trkpt>
      <trkpt lat="47.9969" lon="7.37975">
        <ele>204.42</ele>
        <time>2021-07-19T13:05:27Z</time>
      </trkpt>
      <trkpt lat="47.99702" lon="7.37975">
        <ele>204.9</ele>
        <time>2021-07-19T13:05:28Z</time>
      </trkpt>
      <trkpt lat="47.99716" lon="7.37976">
        <ele>206.34</ele>
        <time>2021-07-19T13:05:29Z</time>
      </trkpt>
      <trkpt lat="47.99866" lon="7.37966">
        <ele>201.05</ele>
        <time>2021-07-19T13:05:37Z</time>
      </trkpt>
      <trkpt lat="48.00115" lon="7.37925">
        <ele>199.61</ele>
        <time>2021-07-19T13:05:50Z</time>
      </trkpt>
      <trkpt lat="48.00452" lon="7.37823">
        <ele>198.17</ele>
        <time>2021-07-19T13:06:06Z</time>
      </trkpt>
      <trkpt lat="48.00788" lon="7.37724">
        <ele>199.13</ele>
        <time>2021-07-19T13:06:22Z</time>
      </trkpt>
      <trkpt lat="48.01254" lon="7.37587">
        <ele>199.13</ele>
        <time>2021-07-19T13:06:42Z</time>
      </trkpt>
      <trkpt lat="48.01654" lon="7.37466">
        <ele>198.65</ele>
        <time>2021-07-19T13:06:59Z</time>
      </trkpt>
      <trkpt lat="48.02042" lon="7.37358">
        <ele>197.69</ele>
        <time>2021-07-19T13:07:15Z</time>
      </trkpt>
      <trkpt lat="48.02439" lon="7.37271">
        <ele>196.73</ele>
        <time>2021-07-19T13:07:31Z</time>
      </trkpt>
      <trkpt lat="48.02916" lon="7.37203">
        <ele>197.21</ele>
        <time>2021-07-19T13:07:48Z</time>
      </trkpt>
      <trkpt lat="48.03564" lon="7.37135">
        <ele>200.57</ele>
        <time>2021-07-19T13:08:13Z</time>
      </trkpt>
      <trkpt lat="48.03994" lon="7.3709">
        <ele>198.17</ele>
        <time>2021-07-19T13:08:29Z</time>
      </trkpt>
      <trkpt lat="48.0446" lon="7.37054">
        <ele>195.28</ele>
        <time>2021-07-19T13:08:46Z</time>
      </trkpt>
      <trkpt lat="48.04724" lon="7.37093">
        <ele>197.69</ele>
        <time>2021-07-19T13:08:56Z</time>
      </trkpt>
      <trkpt lat="48.04993" lon="7.37187">
        <ele>198.17</ele>
        <time>2021-07-19T13:09:07Z</time>
      </trkpt>
      <trkpt lat="48.05278" lon="7.37359">
        <ele>197.69</ele>
        <time>2021-07-19T13:09:19Z</time>
      </trkpt>
      <trkpt lat="48.05627" lon="7.37647">
        <ele>200.09</ele>
        <time>2021-07-19T13:09:34Z</time>
      </trkpt>
      <trkpt lat="48.06099" lon="7.38053">
        <ele>193.36</ele>
        <time>2021-07-19T13:09:54Z</time>
      </trkpt>
      <trkpt lat="48.06419" lon="7.38275">
        <ele>191.92</ele>
        <time>2021-07-19T13:10:07Z</time>
      </trkpt>
      <trkpt lat="48.06799" lon="7.38449">
        <ele>191.92</ele>
        <time>2021-07-19T13:10:21Z</time>
      </trkpt>
      <trkpt lat="48.07054" lon="7.38514">
        <ele>195.77</ele>
        <time>2021-07-19T13:10:32Z</time>
      </trkpt>
      <trkpt lat="48.0741" lon="7.38547">
        <ele>196.73</ele>
        <time>2021-07-19T13:10:46Z</time>
      </trkpt>
      <trkpt lat="48.07747" lon="7.38515">
        <ele>193.84</ele>
        <time>2021-07-19T13:10:58Z</time>
      </trkpt>
      <trkpt lat="48.08144" lon="7.38446">
        <ele>186.63</ele>
        <time>2021-07-19T13:11:14Z</time>
      </trkpt>
      <trkpt lat="48.08589" lon="7.38368">
        <ele>190.48</ele>
        <time>2021-07-19T13:11:31Z</time>
      </trkpt>
      <trkpt lat="48.08907" lon="7.38313">
        <ele>191.92</ele>
        <time>2021-07-19T13:11:44Z</time>
      </trkpt>
      <trkpt lat="48.09292" lon="7.38264">
        <ele>192.88</ele>
        <time>2021-07-19T13:12:00Z</time>
      </trkpt>
      <trkpt lat="48.09753" lon="7.3824">
        <ele>191.92</ele>
        <time>2021-07-19T13:12:18Z</time>
      </trkpt>
      <trkpt lat="48.10169" lon="7.38247">
        <ele>191.92</ele>
        <time>2021-07-19T13:12:34Z</time>
      </trkpt>
      <trkpt lat="48.10727" lon="7.38292">
        <ele>190.48</ele>
        <time>2021-07-19T13:12:56Z</time>
      </trkpt>
      <trkpt lat="48.10982" lon="7.38293">
        <ele>188.56</ele>
        <time>2021-07-19T13:13:06Z</time>
      </trkpt>
      <trkpt lat="48.11185" lon="7.38227">
        <ele>186.63</ele>
        <time>2021-07-19T13:13:14Z</time>
      </trkpt>
      <trkpt lat="48.11375" lon="7.38095">
        <ele>187.11</ele>
        <time>2021-07-19T13:13:22Z</time>
      </trkpt>
      <trkpt lat="48.11537" lon="7.37899">
        <ele>185.19</ele>
        <time>2021-07-19T13:13:30Z</time>
      </trkpt>
      <trkpt lat="48.11664" lon="7.37652">
        <ele>185.67</ele>
        <time>2021-07-19T13:13:38Z</time>
      </trkpt>
      <trkpt lat="48.11779" lon="7.37311">
        <ele>185.19</ele>
        <time>2021-07-19T13:13:48Z</time>
      </trkpt>
      <trkpt lat="48.11915" lon="7.36897">
        <ele>185.19</ele>
        <time>2021-07-19T13:14:00Z</time>
      </trkpt>
      <trkpt lat="48.12056" lon="7.36686">
        <ele>185.67</ele>
        <time>2021-07-19T13:14:07Z</time>
      </trkpt>
      <trkpt lat="48.12187" lon="7.36578">
        <ele>184.71</ele>
        <time>2021-07-19T13:14:14Z</time>
      </trkpt>
      <trkpt lat="48.12353" lon="7.36516">
        <ele>186.63</ele>
        <time>2021-07-19T13:14:22Z</time>
      </trkpt>
      <trkpt lat="48.12555" lon="7.36524">
        <ele>190.96</ele>
        <time>2021-07-19T13:14:31Z</time>
      </trkpt>
      <trkpt lat="48.12875" lon="7.3658">
        <ele>189.52</ele>
        <time>2021-07-19T13:14:44Z</time>
      </trkpt>
      <trkpt lat="48.1317" lon="7.36606">
        <ele>186.15</ele>
        <time>2021-07-19T13:14:56Z</time>
      </trkpt>
      <trkpt lat="48.13372" lon="7.36558">
        <ele>187.11</ele>
        <time>2021-07-19T13:15:04Z</time>
      </trkpt>
      <trkpt lat="48.1369" lon="7.36485">
        <ele>192.4</ele>
        <time>2021-07-19T13:15:16Z</time>
      </trkpt>
      <trkpt lat="48.13903" lon="7.36523">
        <ele>194.8</ele>
        <time>2021-07-19T13:15:24Z</time>
      </trkpt>
      <trkpt lat="48.14055" lon="7.36596">
        <ele>190</ele>
        <time>2021-07-19T13:15:30Z</time>
      </trkpt>
      <trkpt lat="48.14264" lon="7.36742">
        <ele>189.04</ele>
        <time>2021-07-19T13:15:39Z</time>
      </trkpt>
      <trkpt lat="48.1448" lon="7.36827">
        <ele>187.59</ele>
        <time>2021-07-19T13:15:48Z</time>
      </trkpt>
      <trkpt lat="48.14712" lon="7.36905">
        <ele>188.56</ele>
        <time>2021-07-19T13:16:00Z</time>
      </trkpt>
      <trkpt lat="48.14957" lon="7.36989">
        <ele>187.11</ele>
        <time>2021-07-19T13:16:12Z</time>
      </trkpt>
      <trkpt lat="48.15119" lon="7.37095">
        <ele>186.63</ele>
        <time>2021-07-19T13:16:20Z</time>
      </trkpt>
      <trkpt lat="48.15256" lon="7.37268">
        <ele>186.63</ele>
        <time>2021-07-19T13:16:28Z</time>
      </trkpt>
      <trkpt lat="48.15354" lon="7.3747">
        <ele>187.11</ele>
        <time>2021-07-19T13:16:35Z</time>
      </trkpt>
      <trkpt lat="48.15472" lon="7.37672">
        <ele>187.11</ele>
        <time>2021-07-19T13:16:42Z</time>
      </trkpt>
      <trkpt lat="48.15618" lon="7.37813">
        <ele>186.63</ele>
        <time>2021-07-19T13:16:49Z</time>
      </trkpt>
      <trkpt lat="48.15789" lon="7.37895">
        <ele>180.87</ele>
        <time>2021-07-19T13:16:56Z</time>
      </trkpt>
      <trkpt lat="48.15966" lon="7.37906">
        <ele>178.46</ele>
        <time>2021-07-19T13:17:03Z</time>
      </trkpt>
      <trkpt lat="48.16122" lon="7.37853">
        <ele>178.94</ele>
        <time>2021-07-19T13:17:09Z</time>
      </trkpt>
      <trkpt lat="48.16342" lon="7.37692">
        <ele>180.38</ele>
        <time>2021-07-19T13:17:17Z</time>
      </trkpt>
      <trkpt lat="48.16537" lon="7.37568">
        <ele>179.42</ele>
        <time>2021-07-19T13:17:26Z</time>
      </trkpt>
      <trkpt lat="48.16746" lon="7.37513">
        <ele>179.9</ele>
        <time>2021-07-19T13:17:34Z</time>
      </trkpt>
      <trkpt lat="48.16956" lon="7.3753">
        <ele>180.87</ele>
        <time>2021-07-19T13:17:42Z</time>
      </trkpt>
      <trkpt lat="48.17158" lon="7.37611">
        <ele>185.67</ele>
        <time>2021-07-19T13:17:50Z</time>
      </trkpt>
      <trkpt lat="48.17379" lon="7.37779">
        <ele>187.59</ele>
        <time>2021-07-19T13:17:59Z</time>
      </trkpt>
      <trkpt lat="48.17671" lon="7.38008">
        <ele>184.23</ele>
        <time>2021-07-19T13:18:11Z</time>
      </trkpt>
      <trkpt lat="48.17906" lon="7.3829">
        <ele>185.19</ele>
        <time>2021-07-19T13:18:22Z</time>
      </trkpt>
      <trkpt lat="48.18154" lon="7.38523">
        <ele>184.71</ele>
        <time>2021-07-19T13:18:33Z</time>
      </trkpt>
      <trkpt lat="48.1848" lon="7.38807">
        <ele>184.71</ele>
        <time>2021-07-19T13:18:46Z</time>
      </trkpt>
      <trkpt lat="48.18569" lon="7.38956">
        <ele>184.71</ele>
        <time>2021-07-19T13:18:52Z</time>
      </trkpt>
      <trkpt lat="48.18685" lon="7.39116">
        <ele>185.19</ele>
        <time>2021-07-19T13:18:58Z</time>
      </trkpt>
      <trkpt lat="48.18847" lon="7.39239">
        <ele>181.35</ele>
        <time>2021-07-19T13:19:05Z</time>
      </trkpt>
      <trkpt lat="48.19252" lon="7.3949">
        <ele>179.42</ele>
        <time>2021-07-19T13:19:22Z</time>
      </trkpt>
      <trkpt lat="48.19567" lon="7.39671">
        <ele>177.98</ele>
        <time>2021-07-19T13:19:35Z</time>
      </trkpt>
      <trkpt lat="48.19834" lon="7.39737">
        <ele>175.1</ele>
        <time>2021-07-19T13:19:44Z</time>
      </trkpt>
      <trkpt lat="48.20124" lon="7.39808">
        <ele>178.94</ele>
        <time>2021-07-19T13:19:56Z</time>
      </trkpt>
      <trkpt lat="48.20487" lon="7.39971">
        <ele>177.5</ele>
        <time>2021-07-19T13:20:10Z</time>
      </trkpt>
      <trkpt lat="48.20831" lon="7.40119">
        <ele>177.02</ele>
        <time>2021-07-19T13:20:23Z</time>
      </trkpt>
      <trkpt lat="48.21127" lon="7.40179">
        <ele>175.1</ele>
        <time>2021-07-19T13:20:34Z</time>
      </trkpt>
      <trkpt lat="48.21326" lon="7.40185">
        <ele>179.42</ele>
        <time>2021-07-19T13:20:42Z</time>
      </trkpt>
      <trkpt lat="48.21575" lon="7.40146">
        <ele>181.83</ele>
        <time>2021-07-19T13:20:52Z</time>
      </trkpt>
      <trkpt lat="48.21755" lon="7.40195">
        <ele>186.15</ele>
        <time>2021-07-19T13:20:59Z</time>
      </trkpt>
      <trkpt lat="48.21992" lon="7.40319">
        <ele>188.56</ele>
        <time>2021-07-19T13:21:09Z</time>
      </trkpt>
      <trkpt lat="48.22347" lon="7.4048">
        <ele>187.59</ele>
        <time>2021-07-19T13:21:23Z</time>
      </trkpt>
      <trkpt lat="48.22597" lon="7.40568">
        <ele>184.71</ele>
        <time>2021-07-19T13:21:33Z</time>
      </trkpt>
      <trkpt lat="48.22726" lon="7.40604">
        <ele>183.75</ele>
        <time>2021-07-19T13:21:41Z</time>
      </trkpt>
      <trkpt lat="48.22814" lon="7.40629">
        <ele>181.83</ele>
        <time>2021-07-19T13:21:49Z</time>
      </trkpt>
      <trkpt lat="48.22867" lon="7.40641">
        <ele>178.94</ele>
        <time>2021-07-19T13:22:02Z</time>
      </trkpt>
      <trkpt lat="48.22975" lon="7.40666">
        <ele>177.5</ele>
        <time>2021-07-19T13:22:25Z</time>
      </trkpt>
      <trkpt lat="48.23085" lon="7.40689">
        <ele>175.58</ele>
        <time>2021-07-19T13:22:46Z</time>
      </trkpt>
      <trkpt lat="48.23184" lon="7.40711">
        <ele>177.98</ele>
        <time>2021-07-19T13:23:03Z</time>
      </trkpt>
      <trkpt lat="48.23295" lon="7.4073">
        <ele>177.98</ele>
        <time>2021-07-19T13:23:22Z</time>
      </trkpt>
      <trkpt lat="48.23398" lon="7.40747">
        <ele>176.06</ele>
        <time>2021-07-19T13:23:39Z</time>
      </trkpt>
      <trkpt lat="48.23462" lon="7.40759">
        <ele>176.54</ele>
        <time>2021-07-19T13:23:53Z</time>
      </trkpt>
      <trkpt lat="48.23495" lon="7.40764">
        <ele>177.02</ele>
        <time>2021-07-19T13:24:06Z</time>
      </trkpt>
      <trkpt lat="48.23542" lon="7.40772">
        <ele>177.5</ele>
        <time>2021-07-19T13:24:19Z</time>
      </trkpt>
      <trkpt lat="48.23654" lon="7.4079">
        <ele>177.98</ele>
        <time>2021-07-19T13:24:37Z</time>
      </trkpt>
      <trkpt lat="48.23779" lon="7.40811">
        <ele>178.94</ele>
        <time>2021-07-19T13:24:49Z</time>
      </trkpt>
      <trkpt lat="48.23947" lon="7.40838">
        <ele>177.98</ele>
        <time>2021-07-19T13:25:02Z</time>
      </trkpt>
      <trkpt lat="48.24161" lon="7.4088">
        <ele>178.94</ele>
        <time>2021-07-19T13:25:14Z</time>
      </trkpt>
      <trkpt lat="48.24437" lon="7.40942">
        <ele>178.94</ele>
        <time>2021-07-19T13:25:27Z</time>
      </trkpt>
      <trkpt lat="48.247" lon="7.41014">
        <ele>180.87</ele>
        <time>2021-07-19T13:25:41Z</time>
      </trkpt>
      <trkpt lat="48.24943" lon="7.41096">
        <ele>179.9</ele>
        <time>2021-07-19T13:25:54Z</time>
      </trkpt>
      <trkpt lat="48.25218" lon="7.41214">
        <ele>178.94</ele>
        <time>2021-07-19T13:26:06Z</time>
      </trkpt>
      <trkpt lat="48.25592" lon="7.41412">
        <ele>180.87</ele>
        <time>2021-07-19T13:26:21Z</time>
      </trkpt>
      <trkpt lat="48.2605" lon="7.41703">
        <ele>180.87</ele>
        <time>2021-07-19T13:26:40Z</time>
      </trkpt>
      <trkpt lat="48.26429" lon="7.42019">
        <ele>181.83</ele>
        <time>2021-07-19T13:26:57Z</time>
      </trkpt>
      <trkpt lat="48.26753" lon="7.42353">
        <ele>183.27</ele>
        <time>2021-07-19T13:27:12Z</time>
      </trkpt>
      <trkpt lat="48.27036" lon="7.42707">
        <ele>184.71</ele>
        <time>2021-07-19T13:27:27Z</time>
      </trkpt>
      <trkpt lat="48.27305" lon="7.4311">
        <ele>190.48</ele>
        <time>2021-07-19T13:27:42Z</time>
      </trkpt>
      <trkpt lat="48.27515" lon="7.43484">
        <ele>190.96</ele>
        <time>2021-07-19T13:27:55Z</time>
      </trkpt>
      <trkpt lat="48.27679" lon="7.43822">
        <ele>190</ele>
        <time>2021-07-19T13:28:06Z</time>
      </trkpt>
      <trkpt lat="48.27828" lon="7.44176">
        <ele>187.11</ele>
        <time>2021-07-19T13:28:19Z</time>
      </trkpt>
      <trkpt lat="48.28039" lon="7.44691">
        <ele>183.75</ele>
        <time>2021-07-19T13:28:37Z</time>
      </trkpt>
      <trkpt lat="48.28133" lon="7.44891">
        <ele>183.27</ele>
        <time>2021-07-19T13:28:45Z</time>
      </trkpt>
      <trkpt lat="48.2827" lon="7.45166">
        <ele>181.83</ele>
        <time>2021-07-19T13:28:59Z</time>
      </trkpt>
      <trkpt lat="48.284" lon="7.45399">
        <ele>182.31</ele>
        <time>2021-07-19T13:29:14Z</time>
      </trkpt>
      <trkpt lat="48.28513" lon="7.45579">
        <ele>181.35</ele>
        <time>2021-07-19T13:29:26Z</time>
      </trkpt>
      <trkpt lat="48.2869" lon="7.45841">
        <ele>178.46</ele>
        <time>2021-07-19T13:29:41Z</time>
      </trkpt>
      <trkpt lat="48.28855" lon="7.46054">
        <ele>177.5</ele>
        <time>2021-07-19T13:29:52Z</time>
      </trkpt>
      <trkpt lat="48.29085" lon="7.46318">
        <ele>180.87</ele>
        <time>2021-07-19T13:30:06Z</time>
      </trkpt>
      <trkpt lat="48.29232" lon="7.46466">
        <ele>178.94</ele>
        <time>2021-07-19T13:30:18Z</time>
      </trkpt>
      <trkpt lat="48.29432" lon="7.46651">
        <ele>177.5</ele>
        <time>2021-07-19T13:30:33Z</time>
      </trkpt>
      <trkpt lat="48.29685" lon="7.46852">
        <ele>175.1</ele>
        <time>2021-07-19T13:30:53Z</time>
      </trkpt>
      <trkpt lat="48.29883" lon="7.46993">
        <ele>173.17</ele>
        <time>2021-07-19T13:31:07Z</time>
      </trkpt>
      <trkpt lat="48.30131" lon="7.47158">
        <ele>170.77</ele>
        <time>2021-07-19T13:31:23Z</time>
      </trkpt>
      <trkpt lat="48.30429" lon="7.47348">
        <ele>171.25</ele>
        <time>2021-07-19T13:31:41Z</time>
      </trkpt>
      <trkpt lat="48.30752" lon="7.4755">
        <ele>171.25</ele>
        <time>2021-07-19T13:32:02Z</time>
      </trkpt>
      <trkpt lat="48.31097" lon="7.47765">
        <ele>170.77</ele>
        <time>2021-07-19T13:32:25Z</time>
      </trkpt>
      <trkpt lat="48.31334" lon="7.47912">
        <ele>171.25</ele>
        <time>2021-07-19T13:32:40Z</time>
      </trkpt>
      <trkpt lat="48.31459" lon="7.47997">
        <ele>171.25</ele>
        <time>2021-07-19T13:32:49Z</time>
      </trkpt>
      <trkpt lat="48.31632" lon="7.48145">
        <ele>170.77</ele>
        <time>2021-07-19T13:32:59Z</time>
      </trkpt>
      <trkpt lat="48.31821" lon="7.48367">
        <ele>167.89</ele>
        <time>2021-07-19T13:33:09Z</time>
      </trkpt>
      <trkpt lat="48.3198" lon="7.4861">
        <ele>168.37</ele>
        <time>2021-07-19T13:33:19Z</time>
      </trkpt>
      <trkpt lat="48.32201" lon="7.49002">
        <ele>168.85</ele>
        <time>2021-07-19T13:33:33Z</time>
      </trkpt>
      <trkpt lat="48.32409" lon="7.49293">
        <ele>168.85</ele>
        <time>2021-07-19T13:33:44Z</time>
      </trkpt>
      <trkpt lat="48.32651" lon="7.49542">
        <ele>168.85</ele>
        <time>2021-07-19T13:33:55Z</time>
      </trkpt>
      <trkpt lat="48.32923" lon="7.49733">
        <ele>167.41</ele>
        <time>2021-07-19T13:34:06Z</time>
      </trkpt>
      <trkpt lat="48.33225" lon="7.49856">
        <ele>166.93</ele>
        <time>2021-07-19T13:34:16Z</time>
      </trkpt>
      <trkpt lat="48.33536" lon="7.49933">
        <ele>165.48</ele>
        <time>2021-07-19T13:34:28Z</time>
      </trkpt>
      <trkpt lat="48.34082" lon="7.5006">
        <ele>164.52</ele>
        <time>2021-07-19T13:34:47Z</time>
      </trkpt>
      <trkpt lat="48.34445" lon="7.50142">
        <ele>163.08</ele>
        <time>2021-07-19T13:35:02Z</time>
      </trkpt>
      <trkpt lat="48.34821" lon="7.50176">
        <ele>161.64</ele>
        <time>2021-07-19T13:35:16Z</time>
      </trkpt>
      <trkpt lat="48.35149" lon="7.50136">
        <ele>163.08</ele>
        <time>2021-07-19T13:35:28Z</time>
      </trkpt>
      <trkpt lat="48.35502" lon="7.5001">
        <ele>163.56</ele>
        <time>2021-07-19T13:35:41Z</time>
      </trkpt>
      <trkpt lat="48.35761" lon="7.49868">
        <ele>165.96</ele>
        <time>2021-07-19T13:35:51Z</time>
      </trkpt>
      <trkpt lat="48.36055" lon="7.49636">
        <ele>166.93</ele>
        <time>2021-07-19T13:36:03Z</time>
      </trkpt>
      <trkpt lat="48.36344" lon="7.49323">
        <ele>168.37</ele>
        <time>2021-07-19T13:36:16Z</time>
      </trkpt>
      <trkpt lat="48.366" lon="7.48955">
        <ele>170.29</ele>
        <time>2021-07-19T13:36:29Z</time>
      </trkpt>
      <trkpt lat="48.36855" lon="7.48592">
        <ele>170.77</ele>
        <time>2021-07-19T13:36:42Z</time>
      </trkpt>
      <trkpt lat="48.37107" lon="7.48335">
        <ele>173.66</ele>
        <time>2021-07-19T13:36:53Z</time>
      </trkpt>
      <trkpt lat="48.37348" lon="7.48167">
        <ele>175.58</ele>
        <time>2021-07-19T13:37:03Z</time>
      </trkpt>
      <trkpt lat="48.37614" lon="7.48051">
        <ele>177.5</ele>
        <time>2021-07-19T13:37:14Z</time>
      </trkpt>
      <trkpt lat="48.37982" lon="7.47947">
        <ele>180.87</ele>
        <time>2021-07-19T13:37:29Z</time>
      </trkpt>
      <trkpt lat="48.38223" lon="7.47883">
        <ele>180.38</ele>
        <time>2021-07-19T13:37:40Z</time>
      </trkpt>
      <trkpt lat="48.38592" lon="7.47784">
        <ele>177.98</ele>
        <time>2021-07-19T13:37:55Z</time>
      </trkpt>
      <trkpt lat="48.38953" lon="7.47687">
        <ele>182.31</ele>
        <time>2021-07-19T13:38:10Z</time>
      </trkpt>
      <trkpt lat="48.3943" lon="7.47584">
        <ele>182.79</ele>
        <time>2021-07-19T13:38:27Z</time>
      </trkpt>
      <trkpt lat="48.39706" lon="7.47604">
        <ele>181.83</ele>
        <time>2021-07-19T13:38:38Z</time>
      </trkpt>
      <trkpt lat="48.39979" lon="7.47683">
        <ele>179.9</ele>
        <time>2021-07-19T13:38:48Z</time>
      </trkpt>
      <trkpt lat="48.40305" lon="7.47858">
        <ele>178.46</ele>
        <time>2021-07-19T13:39:00Z</time>
      </trkpt>
      <trkpt lat="48.40611" lon="7.48028">
        <ele>180.87</ele>
        <time>2021-07-19T13:39:12Z</time>
      </trkpt>
      <trkpt lat="48.4091" lon="7.48154">
        <ele>182.31</ele>
        <time>2021-07-19T13:39:24Z</time>
      </trkpt>
      <trkpt lat="48.41264" lon="7.48247">
        <ele>177.98</ele>
        <time>2021-07-19T13:39:37Z</time>
      </trkpt>
      <trkpt lat="48.41603" lon="7.48349">
        <ele>175.1</ele>
        <time>2021-07-19T13:39:49Z</time>
      </trkpt>
      <trkpt lat="48.41927" lon="7.48512">
        <ele>174.62</ele>
        <time>2021-07-19T13:40:01Z</time>
      </trkpt>
      <trkpt lat="48.42255" lon="7.48756">
        <ele>170.77</ele>
        <time>2021-07-19T13:40:14Z</time>
      </trkpt>
      <trkpt lat="48.42565" lon="7.49044">
        <ele>166.93</ele>
        <time>2021-07-19T13:40:27Z</time>
      </trkpt>
      <trkpt lat="48.43104" lon="7.49496">
        <ele>165.96</ele>
        <time>2021-07-19T13:40:49Z</time>
      </trkpt>
      <trkpt lat="48.4349" lon="7.49777">
        <ele>167.89</ele>
        <time>2021-07-19T13:41:05Z</time>
      </trkpt>
      <trkpt lat="48.43847" lon="7.50008">
        <ele>167.89</ele>
        <time>2021-07-19T13:41:20Z</time>
      </trkpt>
      <trkpt lat="48.4428" lon="7.50253">
        <ele>169.81</ele>
        <time>2021-07-19T13:41:37Z</time>
      </trkpt>
      <trkpt lat="48.44782" lon="7.5051">
        <ele>172.21</ele>
        <time>2021-07-19T13:41:56Z</time>
      </trkpt>
      <trkpt lat="48.452" lon="7.50749">
        <ele>173.66</ele>
        <time>2021-07-19T13:42:12Z</time>
      </trkpt>
      <trkpt lat="48.45414" lon="7.50948">
        <ele>174.62</ele>
        <time>2021-07-19T13:42:21Z</time>
      </trkpt>
      <trkpt lat="48.45598" lon="7.51208">
        <ele>174.62</ele>
        <time>2021-07-19T13:42:30Z</time>
      </trkpt>
      <trkpt lat="48.45744" lon="7.51506">
        <ele>174.62</ele>
        <time>2021-07-19T13:42:39Z</time>
      </trkpt>
      <trkpt lat="48.45848" lon="7.51821">
        <ele>171.73</ele>
        <time>2021-07-19T13:42:48Z</time>
      </trkpt>
      <trkpt lat="48.45975" lon="7.5224">
        <ele>165.96</ele>
        <time>2021-07-19T13:42:59Z</time>
      </trkpt>
      <trkpt lat="48.46126" lon="7.52578">
        <ele>161.64</ele>
        <time>2021-07-19T13:43:10Z</time>
      </trkpt>
      <trkpt lat="48.4628" lon="7.52826">
        <ele>162.6</ele>
        <time>2021-07-19T13:43:19Z</time>
      </trkpt>
      <trkpt lat="48.46536" lon="7.53151">
        <ele>163.08</ele>
        <time>2021-07-19T13:43:33Z</time>
      </trkpt>
      <trkpt lat="48.46862" lon="7.53541">
        <ele>160.2</ele>
        <time>2021-07-19T13:43:50Z</time>
      </trkpt>
      <trkpt lat="48.47147" lon="7.53874">
        <ele>158.75</ele>
        <time>2021-07-19T13:44:03Z</time>
      </trkpt>
      <trkpt lat="48.47554" lon="7.54316">
        <ele>154.91</ele>
        <time>2021-07-19T13:44:21Z</time>
      </trkpt>
      <trkpt lat="48.48103" lon="7.54814">
        <ele>153.47</ele>
        <time>2021-07-19T13:44:44Z</time>
      </trkpt>
      <trkpt lat="48.48523" lon="7.55194">
        <ele>152.51</ele>
        <time>2021-07-19T13:45:01Z</time>
      </trkpt>
      <trkpt lat="48.48917" lon="7.55531">
        <ele>155.87</ele>
        <time>2021-07-19T13:45:17Z</time>
      </trkpt>
      <trkpt lat="48.4931" lon="7.55782">
        <ele>161.16</ele>
        <time>2021-07-19T13:45:33Z</time>
      </trkpt>
      <trkpt lat="48.49585" lon="7.55997">
        <ele>155.87</ele>
        <time>2021-07-19T13:45:44Z</time>
      </trkpt>
      <trkpt lat="48.49805" lon="7.56255">
        <ele>157.31</ele>
        <time>2021-07-19T13:45:54Z</time>
      </trkpt>
      <trkpt lat="48.50003" lon="7.56582">
        <ele>157.79</ele>
        <time>2021-07-19T13:46:04Z</time>
      </trkpt>
      <trkpt lat="48.50112" lon="7.56829">
        <ele>163.56</ele>
        <time>2021-07-19T13:46:13Z</time>
      </trkpt>
      <trkpt lat="48.50241" lon="7.57149">
        <ele>170.77</ele>
        <time>2021-07-19T13:46:24Z</time>
      </trkpt>
      <trkpt lat="48.50325" lon="7.57356">
        <ele>174.62</ele>
        <time>2021-07-19T13:46:32Z</time>
      </trkpt>
      <trkpt lat="48.50453" lon="7.57607">
        <ele>176.54</ele>
        <time>2021-07-19T13:46:44Z</time>
      </trkpt>
      <trkpt lat="48.50601" lon="7.57827">
        <ele>176.06</ele>
        <time>2021-07-19T13:46:56Z</time>
      </trkpt>
      <trkpt lat="48.50811" lon="7.5804">
        <ele>171.25</ele>
        <time>2021-07-19T13:47:11Z</time>
      </trkpt>
      <trkpt lat="48.51015" lon="7.58175">
        <ele>169.81</ele>
        <time>2021-07-19T13:47:24Z</time>
      </trkpt>
      <trkpt lat="48.51258" lon="7.58271">
        <ele>166.93</ele>
        <time>2021-07-19T13:47:39Z</time>
      </trkpt>
      <trkpt lat="48.51527" lon="7.58381">
        <ele>164.04</ele>
        <time>2021-07-19T13:47:55Z</time>
      </trkpt>
      <trkpt lat="48.51658" lon="7.58477">
        <ele>159.24</ele>
        <time>2021-07-19T13:48:02Z</time>
      </trkpt>
      <trkpt lat="48.51933" lon="7.58764">
        <ele>158.75</ele>
        <time>2021-07-19T13:48:18Z</time>
      </trkpt>
      <trkpt lat="48.52076" lon="7.59">
        <ele>157.31</ele>
        <time>2021-07-19T13:48:29Z</time>
      </trkpt>
      <trkpt lat="48.52207" lon="7.5925">
        <ele>157.79</ele>
        <time>2021-07-19T13:48:41Z</time>
      </trkpt>
      <trkpt lat="48.52306" lon="7.59499">
        <ele>159.72</ele>
        <time>2021-07-19T13:48:50Z</time>
      </trkpt>
      <trkpt lat="48.52396" lon="7.5985">
        <ele>159.72</ele>
        <time>2021-07-19T13:49:00Z</time>
      </trkpt>
      <trkpt lat="48.52456" lon="7.60257">
        <ele>157.79</ele>
        <time>2021-07-19T13:49:10Z</time>
      </trkpt>
      <trkpt lat="48.5247" lon="7.60647">
        <ele>155.87</ele>
        <time>2021-07-19T13:49:19Z</time>
      </trkpt>
      <trkpt lat="48.5244" lon="7.61078">
        <ele>156.83</ele>
        <time>2021-07-19T13:49:29Z</time>
      </trkpt>
      <trkpt lat="48.52339" lon="7.61718">
        <ele>157.79</ele>
        <time>2021-07-19T13:49:44Z</time>
      </trkpt>
      <trkpt lat="48.52237" lon="7.62341">
        <ele>152.51</ele>
        <time>2021-07-19T13:49:59Z</time>
      </trkpt>
      <trkpt lat="48.52187" lon="7.62775">
        <ele>150.58</ele>
        <time>2021-07-19T13:50:10Z</time>
      </trkpt>
      <trkpt lat="48.52185" lon="7.63367">
        <ele>150.1</ele>
        <time>2021-07-19T13:50:25Z</time>
      </trkpt>
      <trkpt lat="48.52209" lon="7.63792">
        <ele>152.03</ele>
        <time>2021-07-19T13:50:36Z</time>
      </trkpt>
      <trkpt lat="48.52289" lon="7.6428">
        <ele>151.06</ele>
        <time>2021-07-19T13:50:49Z</time>
      </trkpt>
      <trkpt lat="48.52391" lon="7.64889">
        <ele>150.58</ele>
        <time>2021-07-19T13:51:07Z</time>
      </trkpt>
      <trkpt lat="48.52439" lon="7.65345">
        <ele>149.62</ele>
        <time>2021-07-19T13:51:21Z</time>
      </trkpt>
      <trkpt lat="48.52453" lon="7.65672">
        <ele>146.26</ele>
        <time>2021-07-19T13:51:32Z</time>
      </trkpt>
      <trkpt lat="48.52457" lon="7.65821">
        <ele>146.26</ele>
        <time>2021-07-19T13:51:39Z</time>
      </trkpt>
      <trkpt lat="48.52464" lon="7.66093">
        <ele>146.26</ele>
        <time>2021-07-19T13:51:53Z</time>
      </trkpt>
      <trkpt lat="48.52478" lon="7.66364">
        <ele>148.66</ele>
        <time>2021-07-19T13:52:03Z</time>
      </trkpt>
      <trkpt lat="48.52512" lon="7.6673">
        <ele>149.14</ele>
        <time>2021-07-19T13:52:15Z</time>
      </trkpt>
      <trkpt lat="48.52577" lon="7.67147">
        <ele>152.03</ele>
        <time>2021-07-19T13:52:28Z</time>
      </trkpt>
      <trkpt lat="48.5266" lon="7.67669">
        <ele>149.62</ele>
        <time>2021-07-19T13:52:44Z</time>
      </trkpt>
      <trkpt lat="48.52709" lon="7.68308">
        <ele>148.66</ele>
        <time>2021-07-19T13:53:03Z</time>
      </trkpt>
      <trkpt lat="48.52755" lon="7.68741">
        <ele>153.47</ele>
        <time>2021-07-19T13:53:16Z</time>
      </trkpt>
      <trkpt lat="48.52839" lon="7.69025">
        <ele>151.54</ele>
        <time>2021-07-19T13:53:25Z</time>
      </trkpt>
      <trkpt lat="48.52958" lon="7.69274">
        <ele>145.78</ele>
        <time>2021-07-19T13:53:34Z</time>
      </trkpt>
      <trkpt lat="48.53174" lon="7.69612">
        <ele>146.74</ele>
        <time>2021-07-19T13:53:48Z</time>
      </trkpt>
      <trkpt lat="48.53416" lon="7.70004">
        <ele>149.14</ele>
        <time>2021-07-19T13:54:04Z</time>
      </trkpt>
      <trkpt lat="48.5352" lon="7.70275">
        <ele>146.26</ele>
        <time>2021-07-19T13:54:13Z</time>
      </trkpt>
      <trkpt lat="48.5358" lon="7.70561">
        <ele>144.82</ele>
        <time>2021-07-19T13:54:22Z</time>
      </trkpt>
      <trkpt lat="48.536" lon="7.7095">
        <ele>147.7</ele>
        <time>2021-07-19T13:54:34Z</time>
      </trkpt>
      <trkpt lat="48.53636" lon="7.71275">
        <ele>145.3</ele>
        <time>2021-07-19T13:54:44Z</time>
      </trkpt>
      <trkpt lat="48.53716" lon="7.71556">
        <ele>146.26</ele>
        <time>2021-07-19T13:54:53Z</time>
      </trkpt>
      <trkpt lat="48.53847" lon="7.71826">
        <ele>145.3</ele>
        <time>2021-07-19T13:55:03Z</time>
      </trkpt>
      <trkpt lat="48.54066" lon="7.72107">
        <ele>142.41</ele>
        <time>2021-07-19T13:55:16Z</time>
      </trkpt>
      <trkpt lat="48.54433" lon="7.72551">
        <ele>140.97</ele>
        <time>2021-07-19T13:55:36Z</time>
      </trkpt>
      <trkpt lat="48.54784" lon="7.72952">
        <ele>140.97</ele>
        <time>2021-07-19T13:55:56Z</time>
      </trkpt>
      <trkpt lat="48.55032" lon="7.73134">
        <ele>139.05</ele>
        <time>2021-07-19T13:56:07Z</time>
      </trkpt>
      <trkpt lat="48.55259" lon="7.73225">
        <ele>140.01</ele>
        <time>2021-07-19T13:56:19Z</time>
      </trkpt>
      <trkpt lat="48.55528" lon="7.73274">
        <ele>138.09</ele>
        <time>2021-07-19T13:56:32Z</time>
      </trkpt>
      <trkpt lat="48.55913" lon="7.73322">
        <ele>138.09</ele>
        <time>2021-07-19T13:56:52Z</time>
      </trkpt>
      <trkpt lat="48.5626" lon="7.73345">
        <ele>138.57</ele>
        <time>2021-07-19T13:57:08Z</time>
      </trkpt>
      <trkpt lat="48.56461" lon="7.73311">
        <ele>138.57</ele>
        <time>2021-07-19T13:57:20Z</time>
      </trkpt>
      <trkpt lat="48.5676" lon="7.73216">
        <ele>136.64</ele>
        <time>2021-07-19T13:57:35Z</time>
      </trkpt>
      <trkpt lat="48.57108" lon="7.73102">
        <ele>141.45</ele>
        <time>2021-07-19T13:57:54Z</time>
      </trkpt>
      <trkpt lat="48.57391" lon="7.72989">
        <ele>142.89</ele>
        <time>2021-07-19T13:58:09Z</time>
      </trkpt>
      <trkpt lat="48.57552" lon="7.72845">
        <ele>143.37</ele>
        <time>2021-07-19T13:58:18Z</time>
      </trkpt>
      <trkpt lat="48.57722" lon="7.72669">
        <ele>146.74</ele>
        <time>2021-07-19T13:58:30Z</time>
      </trkpt>
      <trkpt lat="48.57866" lon="7.72522">
        <ele>146.74</ele>
        <time>2021-07-19T13:58:41Z</time>
      </trkpt>
      <trkpt lat="48.58027" lon="7.72426">
        <ele>146.26</ele>
        <time>2021-07-19T13:58:50Z</time>
      </trkpt>
      <trkpt lat="48.58225" lon="7.72397">
        <ele>145.3</ele>
        <time>2021-07-19T13:58:59Z</time>
      </trkpt>
      <trkpt lat="48.58388" lon="7.72439">
        <ele>144.82</ele>
        <time>2021-07-19T13:59:09Z</time>
      </trkpt>
      <trkpt lat="48.58554" lon="7.72556">
        <ele>145.3</ele>
        <time>2021-07-19T13:59:19Z</time>
      </trkpt>
      <trkpt lat="48.58702" lon="7.72742">
        <ele>144.82</ele>
        <time>2021-07-19T13:59:29Z</time>
      </trkpt>
      <trkpt lat="48.58915" lon="7.73084">
        <ele>143.37</ele>
        <time>2021-07-19T13:59:46Z</time>
      </trkpt>
      <trkpt lat="48.59078" lon="7.73375">
        <ele>144.82</ele>
        <time>2021-07-19T14:00:00Z</time>
      </trkpt>
      <trkpt lat="48.59172" lon="7.73622">
        <ele>147.7</ele>
        <time>2021-07-19T14:00:10Z</time>
      </trkpt>
      <trkpt lat="48.59273" lon="7.73849">
        <ele>147.7</ele>
        <time>2021-07-19T14:00:21Z</time>
      </trkpt>
      <trkpt lat="48.5939" lon="7.73965">
        <ele>147.7</ele>
        <time>2021-07-19T14:00:29Z</time>
      </trkpt>
      <trkpt lat="48.59538" lon="7.74021">
        <ele>148.66</ele>
        <time>2021-07-19T14:00:37Z</time>
      </trkpt>
      <trkpt lat="48.59705" lon="7.74009">
        <ele>150.58</ele>
        <time>2021-07-19T14:00:45Z</time>
      </trkpt>
      <trkpt lat="48.59843" lon="7.73921">
        <ele>152.03</ele>
        <time>2021-07-19T14:00:52Z</time>
      </trkpt>
      <trkpt lat="48.59946" lon="7.73762">
        <ele>148.66</ele>
        <time>2021-07-19T14:00:59Z</time>
      </trkpt>
      <trkpt lat="48.60138" lon="7.73368">
        <ele>148.66</ele>
        <time>2021-07-19T14:01:15Z</time>
      </trkpt>
      <trkpt lat="48.6031" lon="7.73048">
        <ele>144.34</ele>
        <time>2021-07-19T14:01:28Z</time>
      </trkpt>
      <trkpt lat="48.60463" lon="7.7287">
        <ele>142.41</ele>
        <time>2021-07-19T14:01:36Z</time>
      </trkpt>
      <trkpt lat="48.60633" lon="7.72764">
        <ele>142.41</ele>
        <time>2021-07-19T14:01:44Z</time>
      </trkpt>
      <trkpt lat="48.60815" lon="7.72727">
        <ele>143.37</ele>
        <time>2021-07-19T14:01:52Z</time>
      </trkpt>
      <trkpt lat="48.60996" lon="7.72706">
        <ele>144.34</ele>
        <time>2021-07-19T14:02:01Z</time>
      </trkpt>
      <trkpt lat="48.61248" lon="7.72678">
        <ele>144.34</ele>
        <time>2021-07-19T14:02:14Z</time>
      </trkpt>
      <trkpt lat="48.6154" lon="7.72663">
        <ele>142.89</ele>
        <time>2021-07-19T14:02:27Z</time>
      </trkpt>
      <trkpt lat="48.62024" lon="7.72647">
        <ele>145.3</ele>
        <time>2021-07-19T14:02:48Z</time>
      </trkpt>
      <trkpt lat="48.62358" lon="7.72602">
        <ele>146.26</ele>
        <time>2021-07-19T14:03:03Z</time>
      </trkpt>
      <trkpt lat="48.62696" lon="7.72473">
        <ele>145.78</ele>
        <time>2021-07-19T14:03:18Z</time>
      </trkpt>
      <trkpt lat="48.6296" lon="7.7239">
        <ele>145.3</ele>
        <time>2021-07-19T14:03:30Z</time>
      </trkpt>
      <trkpt lat="48.63178" lon="7.72394">
        <ele>145.78</ele>
        <time>2021-07-19T14:03:40Z</time>
      </trkpt>
      <trkpt lat="48.63397" lon="7.72462">
        <ele>142.89</ele>
        <time>2021-07-19T14:03:50Z</time>
      </trkpt>
      <trkpt lat="48.63594" lon="7.72594">
        <ele>144.34</ele>
        <time>2021-07-19T14:04:00Z</time>
      </trkpt>
      <trkpt lat="48.6384" lon="7.72826">
        <ele>146.74</ele>
        <time>2021-07-19T14:04:12Z</time>
      </trkpt>
      <trkpt lat="48.64097" lon="7.73052">
        <ele>143.37</ele>
        <time>2021-07-19T14:04:27Z</time>
      </trkpt>
      <trkpt lat="48.64354" lon="7.73209">
        <ele>141.45</ele>
        <time>2021-07-19T14:04:41Z</time>
      </trkpt>
      <trkpt lat="48.64654" lon="7.73335">
        <ele>142.41</ele>
        <time>2021-07-19T14:04:57Z</time>
      </trkpt>
      <trkpt lat="48.64944" lon="7.73449">
        <ele>146.26</ele>
        <time>2021-07-19T14:05:13Z</time>
      </trkpt>
      <trkpt lat="48.65305" lon="7.73589">
        <ele>148.18</ele>
        <time>2021-07-19T14:05:31Z</time>
      </trkpt>
      <trkpt lat="48.65654" lon="7.73698">
        <ele>144.82</ele>
        <time>2021-07-19T14:05:47Z</time>
      </trkpt>
      <trkpt lat="48.65928" lon="7.73729">
        <ele>141.45</ele>
        <time>2021-07-19T14:05:59Z</time>
      </trkpt>
      <trkpt lat="48.66129" lon="7.73726">
        <ele>140.01</ele>
        <time>2021-07-19T14:06:08Z</time>
      </trkpt>
      <trkpt lat="48.66552" lon="7.73696">
        <ele>137.61</ele>
        <time>2021-07-19T14:06:25Z</time>
      </trkpt>
      <trkpt lat="48.66859" lon="7.73671">
        <ele>137.61</ele>
        <time>2021-07-19T14:06:38Z</time>
      </trkpt>
      <trkpt lat="48.67252" lon="7.73626">
        <ele>137.13</ele>
        <time>2021-07-19T14:06:55Z</time>
      </trkpt>
      <trkpt lat="48.6756" lon="7.73544">
        <ele>138.09</ele>
        <time>2021-07-19T14:07:08Z</time>
      </trkpt>
      <trkpt lat="48.67902" lon="7.73388">
        <ele>136.16</ele>
        <time>2021-07-19T14:07:22Z</time>
      </trkpt>
      <trkpt lat="48.68266" lon="7.73172">
        <ele>135.68</ele>
        <time>2021-07-19T14:07:37Z</time>
      </trkpt>
      <trkpt lat="48.68542" lon="7.73006">
        <ele>138.57</ele>
        <time>2021-07-19T14:07:51Z</time>
      </trkpt>
      <trkpt lat="48.68951" lon="7.72758">
        <ele>141.45</ele>
        <time>2021-07-19T14:08:10Z</time>
      </trkpt>
      <trkpt lat="48.69202" lon="7.72601">
        <ele>139.05</ele>
        <time>2021-07-19T14:08:23Z</time>
      </trkpt>
      <trkpt lat="48.69454" lon="7.72401">
        <ele>135.68</ele>
        <time>2021-07-19T14:08:35Z</time>
      </trkpt>
      <trkpt lat="48.69696" lon="7.72168">
        <ele>137.13</ele>
        <time>2021-07-19T14:08:47Z</time>
      </trkpt>
      <trkpt lat="48.69909" lon="7.71908">
        <ele>139.05</ele>
        <time>2021-07-19T14:08:58Z</time>
      </trkpt>
      <trkpt lat="48.70163" lon="7.71537">
        <ele>140.97</ele>
        <time>2021-07-19T14:09:12Z</time>
      </trkpt>
      <trkpt lat="48.70489" lon="7.71031">
        <ele>146.74</ele>
        <time>2021-07-19T14:09:31Z</time>
      </trkpt>
      <trkpt lat="48.70845" lon="7.70477">
        <ele>145.3</ele>
        <time>2021-07-19T14:09:52Z</time>
      </trkpt>
      <trkpt lat="48.71057" lon="7.70204">
        <ele>140.49</ele>
        <time>2021-07-19T14:10:04Z</time>
      </trkpt>
      <trkpt lat="48.71286" lon="7.6999">
        <ele>140.01</ele>
        <time>2021-07-19T14:10:15Z</time>
      </trkpt>
      <trkpt lat="48.7152" lon="7.69828">
        <ele>140.49</ele>
        <time>2021-07-19T14:10:26Z</time>
      </trkpt>
      <trkpt lat="48.7195" lon="7.69553">
        <ele>140.49</ele>
        <time>2021-07-19T14:10:43Z</time>
      </trkpt>
      <trkpt lat="48.72538" lon="7.69187">
        <ele>140.49</ele>
        <time>2021-07-19T14:11:06Z</time>
      </trkpt>
      <trkpt lat="48.72931" lon="7.69005">
        <ele>141.45</ele>
        <time>2021-07-19T14:11:21Z</time>
      </trkpt>
      <trkpt lat="48.73303" lon="7.68907">
        <ele>142.89</ele>
        <time>2021-07-19T14:11:35Z</time>
      </trkpt>
      <trkpt lat="48.73566" lon="7.68869">
        <ele>143.37</ele>
        <time>2021-07-19T14:11:46Z</time>
      </trkpt>
      <trkpt lat="48.73954" lon="7.68815">
        <ele>147.22</ele>
        <time>2021-07-19T14:12:04Z</time>
      </trkpt>
      <trkpt lat="48.7431" lon="7.68728">
        <ele>150.1</ele>
        <time>2021-07-19T14:12:21Z</time>
      </trkpt>
      <trkpt lat="48.74538" lon="7.68634">
        <ele>152.03</ele>
        <time>2021-07-19T14:12:33Z</time>
      </trkpt>
      <trkpt lat="48.74707" lon="7.68558">
        <ele>152.99</ele>
        <time>2021-07-19T14:12:43Z</time>
      </trkpt>
      <trkpt lat="48.74707" lon="7.68558">
        <ele>153.95</ele>
        <time>2021-07-19T14:12:44Z</time>
      </trkpt>
      <trkpt lat="48.74722" lon="7.68558">
        <ele>154.91</ele>
        <time>2021-07-19T14:12:45Z</time>
      </trkpt>
      <trkpt lat="48.74736" lon="7.68562">
        <ele>155.39</ele>
        <time>2021-07-19T14:12:46Z</time>
      </trkpt>
      <trkpt lat="48.7475" lon="7.68566">
        <ele>156.35</ele>
        <time>2021-07-19T14:12:47Z</time>
      </trkpt>
      <trkpt lat="48.74864" lon="7.68605">
        <ele>162.12</ele>
        <time>2021-07-19T14:12:56Z</time>
      </trkpt>
      <trkpt lat="48.74876" lon="7.68611">
        <ele>162.6</ele>
        <time>2021-07-19T14:12:57Z</time>
      </trkpt>
      <trkpt lat="48.74886" lon="7.68622">
        <ele>163.08</ele>
        <time>2021-07-19T14:12:58Z</time>
      </trkpt>
      <trkpt lat="48.74895" lon="7.68637">
        <ele>164.52</ele>
        <time>2021-07-19T14:12:59Z</time>
      </trkpt>
      <trkpt lat="48.74913" lon="7.68667">
        <ele>165.48</ele>
        <time>2021-07-19T14:13:00Z</time>
      </trkpt>
      <trkpt lat="48.74913" lon="7.68667">
        <ele>165.96</ele>
        <time>2021-07-19T14:13:01Z</time>
      </trkpt>
      <trkpt lat="48.74988" lon="7.68859">
        <ele>169.81</ele>
        <time>2021-07-19T14:13:10Z</time>
      </trkpt>
      <trkpt lat="48.75113" lon="7.6911">
        <ele>172.21</ele>
        <time>2021-07-19T14:13:20Z</time>
      </trkpt>
      <trkpt lat="48.7528" lon="7.69348">
        <ele>176.54</ele>
        <time>2021-07-19T14:13:30Z</time>
      </trkpt>
      <trkpt lat="48.75494" lon="7.6956">
        <ele>179.9</ele>
        <time>2021-07-19T14:13:41Z</time>
      </trkpt>
      <trkpt lat="48.75729" lon="7.69728">
        <ele>178.94</ele>
        <time>2021-07-19T14:13:52Z</time>
      </trkpt>
      <trkpt lat="48.75995" lon="7.69956">
        <ele>177.98</ele>
        <time>2021-07-19T14:14:04Z</time>
      </trkpt>
      <trkpt lat="48.76383" lon="7.70374">
        <ele>173.17</ele>
        <time>2021-07-19T14:14:22Z</time>
      </trkpt>
      <trkpt lat="48.76737" lon="7.70764">
        <ele>178.46</ele>
        <time>2021-07-19T14:14:39Z</time>
      </trkpt>
      <trkpt lat="48.77073" lon="7.7113">
        <ele>190</ele>
        <time>2021-07-19T14:14:56Z</time>
      </trkpt>
      <trkpt lat="48.77428" lon="7.71531">
        <ele>195.77</ele>
        <time>2021-07-19T14:15:14Z</time>
      </trkpt>
      <trkpt lat="48.77824" lon="7.71995">
        <ele>196.25</ele>
        <time>2021-07-19T14:15:33Z</time>
      </trkpt>
      <trkpt lat="48.78216" lon="7.72481">
        <ele>190.96</ele>
        <time>2021-07-19T14:15:52Z</time>
      </trkpt>
      <trkpt lat="48.78436" lon="7.72834">
        <ele>190.48</ele>
        <time>2021-07-19T14:16:03Z</time>
      </trkpt>
      <trkpt lat="48.786" lon="7.73195">
        <ele>188.08</ele>
        <time>2021-07-19T14:16:15Z</time>
      </trkpt>
      <trkpt lat="48.78734" lon="7.73503">
        <ele>183.75</ele>
        <time>2021-07-19T14:16:25Z</time>
      </trkpt>
      <trkpt lat="48.78897" lon="7.739">
        <ele>175.58</ele>
        <time>2021-07-19T14:16:40Z</time>
      </trkpt>
      <trkpt lat="48.7904" lon="7.74303">
        <ele>170.77</ele>
        <time>2021-07-19T14:16:55Z</time>
      </trkpt>
      <trkpt lat="48.79158" lon="7.7463">
        <ele>169.81</ele>
        <time>2021-07-19T14:17:10Z</time>
      </trkpt>
      <trkpt lat="48.79196" lon="7.74735">
        <ele>167.41</ele>
        <time>2021-07-19T14:17:15Z</time>
      </trkpt>
      <trkpt lat="48.792" lon="7.74756">
        <ele>165</ele>
        <time>2021-07-19T14:17:16Z</time>
      </trkpt>
      <trkpt lat="48.79203" lon="7.74772">
        <ele>163.08</ele>
        <time>2021-07-19T14:17:17Z</time>
      </trkpt>
      <trkpt lat="48.79204" lon="7.74788">
        <ele>162.12</ele>
        <time>2021-07-19T14:17:18Z</time>
      </trkpt>
      <trkpt lat="48.79202" lon="7.74801">
        <ele>161.64</ele>
        <time>2021-07-19T14:17:19Z</time>
      </trkpt>
      <trkpt lat="48.79198" lon="7.74816">
        <ele>161.64</ele>
        <time>2021-07-19T14:17:20Z</time>
      </trkpt>
      <trkpt lat="48.79194" lon="7.74828">
        <ele>161.16</ele>
        <time>2021-07-19T14:17:21Z</time>
      </trkpt>
      <trkpt lat="48.79186" lon="7.74837">
        <ele>161.64</ele>
        <time>2021-07-19T14:17:22Z</time>
      </trkpt>
      <trkpt lat="48.79178" lon="7.74847">
        <ele>160.68</ele>
        <time>2021-07-19T14:17:23Z</time>
      </trkpt>
      <trkpt lat="48.79171" lon="7.74851">
        <ele>161.64</ele>
        <time>2021-07-19T14:17:24Z</time>
      </trkpt>
      <trkpt lat="48.79162" lon="7.74854">
        <ele>161.64</ele>
        <time>2021-07-19T14:17:25Z</time>
      </trkpt>
      <trkpt lat="48.79153" lon="7.74855">
        <ele>162.6</ele>
        <time>2021-07-19T14:17:26Z</time>
      </trkpt>
      <trkpt lat="48.79145" lon="7.74851">
        <ele>162.12</ele>
        <time>2021-07-19T14:17:27Z</time>
      </trkpt>
      <trkpt lat="48.79136" lon="7.74847">
        <ele>161.64</ele>
        <time>2021-07-19T14:17:28Z</time>
      </trkpt>
      <trkpt lat="48.79126" lon="7.74841">
        <ele>162.12</ele>
        <time>2021-07-19T14:17:29Z</time>
      </trkpt>
      <trkpt lat="48.79118" lon="7.74829">
        <ele>161.64</ele>
        <time>2021-07-19T14:17:30Z</time>
      </trkpt>
      <trkpt lat="48.79114" lon="7.74815">
        <ele>161.64</ele>
        <time>2021-07-19T14:17:31Z</time>
      </trkpt>
      <trkpt lat="48.79111" lon="7.74799">
        <ele>161.64</ele>
        <time>2021-07-19T14:17:32Z</time>
      </trkpt>
      <trkpt lat="48.7911" lon="7.74785">
        <ele>160.68</ele>
        <time>2021-07-19T14:17:33Z</time>
      </trkpt>
      <trkpt lat="48.79111" lon="7.74768">
        <ele>161.16</ele>
        <time>2021-07-19T14:17:34Z</time>
      </trkpt>
      <trkpt lat="48.79113" lon="7.74755">
        <ele>160.68</ele>
        <time>2021-07-19T14:17:35Z</time>
      </trkpt>
      <trkpt lat="48.79119" lon="7.74744">
        <ele>160.2</ele>
        <time>2021-07-19T14:17:36Z</time>
      </trkpt>
      <trkpt lat="48.79127" lon="7.74734">
        <ele>159.72</ele>
        <time>2021-07-19T14:17:37Z</time>
      </trkpt>
      <trkpt lat="48.79134" lon="7.74723">
        <ele>159.24</ele>
        <time>2021-07-19T14:17:38Z</time>
      </trkpt>
      <trkpt lat="48.79142" lon="7.74713">
        <ele>159.72</ele>
        <time>2021-07-19T14:17:39Z</time>
      </trkpt>
      <trkpt lat="48.79259" lon="7.7464">
        <ele>162.12</ele>
        <time>2021-07-19T14:17:49Z</time>
      </trkpt>
      <trkpt lat="48.79446" lon="7.74552">
        <ele>157.31</ele>
        <time>2021-07-19T14:17:59Z</time>
      </trkpt>
      <trkpt lat="48.79655" lon="7.74443">
        <ele>156.35</ele>
        <time>2021-07-19T14:18:11Z</time>
      </trkpt>
      <trkpt lat="48.79897" lon="7.74304">
        <ele>154.91</ele>
        <time>2021-07-19T14:18:22Z</time>
      </trkpt>
      <trkpt lat="48.80073" lon="7.74271">
        <ele>155.39</ele>
        <time>2021-07-19T14:18:29Z</time>
      </trkpt>
      <trkpt lat="48.80254" lon="7.74324">
        <ele>157.79</ele>
        <time>2021-07-19T14:18:36Z</time>
      </trkpt>
      <trkpt lat="48.80398" lon="7.7444">
        <ele>159.24</ele>
        <time>2021-07-19T14:18:42Z</time>
      </trkpt>
      <trkpt lat="48.80534" lon="7.74654">
        <ele>162.6</ele>
        <time>2021-07-19T14:18:49Z</time>
      </trkpt>
      <trkpt lat="48.80639" lon="7.74954">
        <ele>161.64</ele>
        <time>2021-07-19T14:18:57Z</time>
      </trkpt>
      <trkpt lat="48.80764" lon="7.75229">
        <ele>163.08</ele>
        <time>2021-07-19T14:19:05Z</time>
      </trkpt>
      <trkpt lat="48.80904" lon="7.75426">
        <ele>161.64</ele>
        <time>2021-07-19T14:19:12Z</time>
      </trkpt>
      <trkpt lat="48.81098" lon="7.75591">
        <ele>158.27</ele>
        <time>2021-07-19T14:19:20Z</time>
      </trkpt>
      <trkpt lat="48.81314" lon="7.7568">
        <ele>154.91</ele>
        <time>2021-07-19T14:19:28Z</time>
      </trkpt>
      <trkpt lat="48.81514" lon="7.75689">
        <ele>147.7</ele>
        <time>2021-07-19T14:19:35Z</time>
      </trkpt>
      <trkpt lat="48.81924" lon="7.75635">
        <ele>143.85</ele>
        <time>2021-07-19T14:19:50Z</time>
      </trkpt>
      <trkpt lat="48.82133" lon="7.75653">
        <ele>148.18</ele>
        <time>2021-07-19T14:19:58Z</time>
      </trkpt>
      <trkpt lat="48.82377" lon="7.7577">
        <ele>153.47</ele>
        <time>2021-07-19T14:20:08Z</time>
      </trkpt>
      <trkpt lat="48.82711" lon="7.75971">
        <ele>155.39</ele>
        <time>2021-07-19T14:20:22Z</time>
      </trkpt>
      <trkpt lat="48.83215" lon="7.76342">
        <ele>152.99</ele>
        <time>2021-07-19T14:20:44Z</time>
      </trkpt>
      <trkpt lat="48.83586" lon="7.7668">
        <ele>155.87</ele>
        <time>2021-07-19T14:21:01Z</time>
      </trkpt>
      <trkpt lat="48.83708" lon="7.7688">
        <ele>157.79</ele>
        <time>2021-07-19T14:21:08Z</time>
      </trkpt>
      <trkpt lat="48.83786" lon="7.7713">
        <ele>157.31</ele>
        <time>2021-07-19T14:21:15Z</time>
      </trkpt>
      <trkpt lat="48.83818" lon="7.77406">
        <ele>154.43</ele>
        <time>2021-07-19T14:21:22Z</time>
      </trkpt>
      <trkpt lat="48.83794" lon="7.77665">
        <ele>152.51</ele>
        <time>2021-07-19T14:21:29Z</time>
      </trkpt>
      <trkpt lat="48.83719" lon="7.77921">
        <ele>153.95</ele>
        <time>2021-07-19T14:21:37Z</time>
      </trkpt>
      <trkpt lat="48.83545" lon="7.78347">
        <ele>157.79</ele>
        <time>2021-07-19T14:21:52Z</time>
      </trkpt>
      <trkpt lat="48.83446" lon="7.78674">
        <ele>160.2</ele>
        <time>2021-07-19T14:22:03Z</time>
      </trkpt>
      <trkpt lat="48.83394" lon="7.79023">
        <ele>149.14</ele>
        <time>2021-07-19T14:22:14Z</time>
      </trkpt>
      <trkpt lat="48.83337" lon="7.79708">
        <ele>147.7</ele>
        <time>2021-07-19T14:22:34Z</time>
      </trkpt>
      <trkpt lat="48.83304" lon="7.80013">
        <ele>148.66</ele>
        <time>2021-07-19T14:22:45Z</time>
      </trkpt>
      <trkpt lat="48.83301" lon="7.80034">
        <ele>149.14</ele>
        <time>2021-07-19T14:22:46Z</time>
      </trkpt>
      <trkpt lat="48.83286" lon="7.80066">
        <ele>149.14</ele>
        <time>2021-07-19T14:22:47Z</time>
      </trkpt>
      <trkpt lat="48.83286" lon="7.80066">
        <ele>149.62</ele>
        <time>2021-07-19T14:22:48Z</time>
      </trkpt>
      <trkpt lat="48.83277" lon="7.80078">
        <ele>148.66</ele>
        <time>2021-07-19T14:22:49Z</time>
      </trkpt>
      <trkpt lat="48.83267" lon="7.80084">
        <ele>148.18</ele>
        <time>2021-07-19T14:22:50Z</time>
      </trkpt>
      <trkpt lat="48.83255" lon="7.80087">
        <ele>148.18</ele>
        <time>2021-07-19T14:22:51Z</time>
      </trkpt>
      <trkpt lat="48.83246" lon="7.80083">
        <ele>148.18</ele>
        <time>2021-07-19T14:22:52Z</time>
      </trkpt>
      <trkpt lat="48.83235" lon="7.80075">
        <ele>148.18</ele>
        <time>2021-07-19T14:22:53Z</time>
      </trkpt>
      <trkpt lat="48.83229" lon="7.80064">
        <ele>148.18</ele>
        <time>2021-07-19T14:22:54Z</time>
      </trkpt>
      <trkpt lat="48.83223" lon="7.80049">
        <ele>149.14</ele>
        <time>2021-07-19T14:22:55Z</time>
      </trkpt>
      <trkpt lat="48.8322" lon="7.80032">
        <ele>148.66</ele>
        <time>2021-07-19T14:22:56Z</time>
      </trkpt>
      <trkpt lat="48.83221" lon="7.80014">
        <ele>149.62</ele>
        <time>2021-07-19T14:22:57Z</time>
      </trkpt>
      <trkpt lat="48.83225" lon="7.79997">
        <ele>150.1</ele>
        <time>2021-07-19T14:22:58Z</time>
      </trkpt>
      <trkpt lat="48.8323" lon="7.79982">
        <ele>150.58</ele>
        <time>2021-07-19T14:22:59Z</time>
      </trkpt>
      <trkpt lat="48.83234" lon="7.7997">
        <ele>149.62</ele>
        <time>2021-07-19T14:23:00Z</time>
      </trkpt>
      <trkpt lat="48.83237" lon="7.79962">
        <ele>150.1</ele>
        <time>2021-07-19T14:23:01Z</time>
      </trkpt>
      <trkpt lat="48.83244" lon="7.79957">
        <ele>150.58</ele>
        <time>2021-07-19T14:23:02Z</time>
      </trkpt>
      <trkpt lat="48.83261" lon="7.79948">
        <ele>150.1</ele>
        <time>2021-07-19T14:23:03Z</time>
      </trkpt>
      <trkpt lat="48.83261" lon="7.79948">
        <ele>151.06</ele>
        <time>2021-07-19T14:23:04Z</time>
      </trkpt>
      <trkpt lat="48.83271" lon="7.79946">
        <ele>152.51</ele>
        <time>2021-07-19T14:23:05Z</time>
      </trkpt>
      <trkpt lat="48.83283" lon="7.79949">
        <ele>152.99</ele>
        <time>2021-07-19T14:23:06Z</time>
      </trkpt>
      <trkpt lat="48.83409" lon="7.80002">
        <ele>151.54</ele>
        <time>2021-07-19T14:23:17Z</time>
      </trkpt>
      <trkpt lat="48.83569" lon="7.80141">
        <ele>145.3</ele>
        <time>2021-07-19T14:23:28Z</time>
      </trkpt>
      <trkpt lat="48.83796" lon="7.80347">
        <ele>149.14</ele>
        <time>2021-07-19T14:23:42Z</time>
      </trkpt>
      <trkpt lat="48.83978" lon="7.80478">
        <ele>153.47</ele>
        <time>2021-07-19T14:23:52Z</time>
      </trkpt>
      <trkpt lat="48.84194" lon="7.80553">
        <ele>154.43</ele>
        <time>2021-07-19T14:24:03Z</time>
      </trkpt>
      <trkpt lat="48.84456" lon="7.8067">
        <ele>153.95</ele>
        <time>2021-07-19T14:24:17Z</time>
      </trkpt>
      <trkpt lat="48.84626" lon="7.80827">
        <ele>153.95</ele>
        <time>2021-07-19T14:24:27Z</time>
      </trkpt>
      <trkpt lat="48.84874" lon="7.81107">
        <ele>152.51</ele>
        <time>2021-07-19T14:24:42Z</time>
      </trkpt>
      <trkpt lat="48.85067" lon="7.81234">
        <ele>151.06</ele>
        <time>2021-07-19T14:24:52Z</time>
      </trkpt>
      <trkpt lat="48.85471" lon="7.81435">
        <ele>150.1</ele>
        <time>2021-07-19T14:25:12Z</time>
      </trkpt>
      <trkpt lat="48.85707" lon="7.81584">
        <ele>149.62</ele>
        <time>2021-07-19T14:25:24Z</time>
      </trkpt>
      <trkpt lat="48.85888" lon="7.81787">
        <ele>150.1</ele>
        <time>2021-07-19T14:25:35Z</time>
      </trkpt>
      <trkpt lat="48.86224" lon="7.82213">
        <ele>149.14</ele>
        <time>2021-07-19T14:25:56Z</time>
      </trkpt>
      <trkpt lat="48.86467" lon="7.82494">
        <ele>147.7</ele>
        <time>2021-07-19T14:26:11Z</time>
      </trkpt>
      <trkpt lat="48.86622" lon="7.82567">
        <ele>144.82</ele>
        <time>2021-07-19T14:26:19Z</time>
      </trkpt>
      <trkpt lat="48.86991" lon="7.82686">
        <ele>148.18</ele>
        <time>2021-07-19T14:26:38Z</time>
      </trkpt>
      <trkpt lat="48.87304" lon="7.82739">
        <ele>145.78</ele>
        <time>2021-07-19T14:26:54Z</time>
      </trkpt>
      <trkpt lat="48.8745" lon="7.8268">
        <ele>150.58</ele>
        <time>2021-07-19T14:27:02Z</time>
      </trkpt>
      <trkpt lat="48.87711" lon="7.82537">
        <ele>156.35</ele>
        <time>2021-07-19T14:27:16Z</time>
      </trkpt>
      <trkpt lat="48.87849" lon="7.82503">
        <ele>154.43</ele>
        <time>2021-07-19T14:27:23Z</time>
      </trkpt>
      <trkpt lat="48.87951" lon="7.82514">
        <ele>158.75</ele>
        <time>2021-07-19T14:27:29Z</time>
      </trkpt>
      <trkpt lat="48.87963" lon="7.82516">
        <ele>160.2</ele>
        <time>2021-07-19T14:27:30Z</time>
      </trkpt>
      <trkpt lat="48.87976" lon="7.82518">
        <ele>160.2</ele>
        <time>2021-07-19T14:27:31Z</time>
      </trkpt>
      <trkpt lat="48.87976" lon="7.82518">
        <ele>160.68</ele>
        <time>2021-07-19T14:27:32Z</time>
      </trkpt>
      <trkpt lat="48.87986" lon="7.82534">
        <ele>160.68</ele>
        <time>2021-07-19T14:27:33Z</time>
      </trkpt>
      <trkpt lat="48.87989" lon="7.82536">
        <ele>160.2</ele>
        <time>2021-07-19T14:27:34Z</time>
      </trkpt>
      <trkpt lat="48.88005" lon="7.82523">
        <ele>160.2</ele>
        <time>2021-07-19T14:27:35Z</time>
      </trkpt>
      <trkpt lat="48.88013" lon="7.82525">
        <ele>160.2</ele>
        <time>2021-07-19T14:27:36Z</time>
      </trkpt>
      <trkpt lat="48.88023" lon="7.82528">
        <ele>161.16</ele>
        <time>2021-07-19T14:27:37Z</time>
      </trkpt>
      <trkpt lat="48.88123" lon="7.82556">
        <ele>160.2</ele>
        <time>2021-07-19T14:27:44Z</time>
      </trkpt>
      <trkpt lat="48.88277" lon="7.82638">
        <ele>157.31</ele>
        <time>2021-07-19T14:27:53Z</time>
      </trkpt>
      <trkpt lat="48.88535" lon="7.82804">
        <ele>150.1</ele>
        <time>2021-07-19T14:28:05Z</time>
      </trkpt>
      <trkpt lat="48.88817" lon="7.83011">
        <ele>149.14</ele>
        <time>2021-07-19T14:28:21Z</time>
      </trkpt>
      <trkpt lat="48.89083" lon="7.83254">
        <ele>150.58</ele>
        <time>2021-07-19T14:28:35Z</time>
      </trkpt>
      <trkpt lat="48.89267" lon="7.83487">
        <ele>152.51</ele>
        <time>2021-07-19T14:28:47Z</time>
      </trkpt>
      <trkpt lat="48.8942" lon="7.83792">
        <ele>151.54</ele>
        <time>2021-07-19T14:28:58Z</time>
      </trkpt>
      <trkpt lat="48.89517" lon="7.84103">
        <ele>151.54</ele>
        <time>2021-07-19T14:29:08Z</time>
      </trkpt>
      <trkpt lat="48.89625" lon="7.84516">
        <ele>149.14</ele>
        <time>2021-07-19T14:29:21Z</time>
      </trkpt>
      <trkpt lat="48.89764" lon="7.84832">
        <ele>151.54</ele>
        <time>2021-07-19T14:29:32Z</time>
      </trkpt>
      <trkpt lat="48.89928" lon="7.85089">
        <ele>157.79</ele>
        <time>2021-07-19T14:29:43Z</time>
      </trkpt>
      <trkpt lat="48.90112" lon="7.85408">
        <ele>166.45</ele>
        <time>2021-07-19T14:29:56Z</time>
      </trkpt>
      <trkpt lat="48.90361" lon="7.85902">
        <ele>173.17</ele>
        <time>2021-07-19T14:30:15Z</time>
      </trkpt>
      <trkpt lat="48.90487" lon="7.86158">
        <ele>175.58</ele>
        <time>2021-07-19T14:30:26Z</time>
      </trkpt>
      <trkpt lat="48.90503" lon="7.86193">
        <ele>175.58</ele>
        <time>2021-07-19T14:30:28Z</time>
      </trkpt>
      <trkpt lat="48.90508" lon="7.86205">
        <ele>175.1</ele>
        <time>2021-07-19T14:30:29Z</time>
      </trkpt>
      <trkpt lat="48.905" lon="7.86241">
        <ele>173.17</ele>
        <time>2021-07-19T14:30:31Z</time>
      </trkpt>
      <trkpt lat="48.90505" lon="7.86257">
        <ele>174.14</ele>
        <time>2021-07-19T14:30:32Z</time>
      </trkpt>
      <trkpt lat="48.90509" lon="7.86269">
        <ele>174.62</ele>
        <time>2021-07-19T14:30:33Z</time>
      </trkpt>
      <trkpt lat="48.90516" lon="7.86276">
        <ele>176.06</ele>
        <time>2021-07-19T14:30:34Z</time>
      </trkpt>
      <trkpt lat="48.90532" lon="7.86284">
        <ele>177.5</ele>
        <time>2021-07-19T14:30:35Z</time>
      </trkpt>
      <trkpt lat="48.90532" lon="7.86284">
        <ele>177.98</ele>
        <time>2021-07-19T14:30:36Z</time>
      </trkpt>
      <trkpt lat="48.90532" lon="7.86284">
        <ele>177.98</ele>
        <time>2021-07-19T14:30:37Z</time>
      </trkpt>
      <trkpt lat="48.90558" lon="7.86292">
        <ele>178.46</ele>
        <time>2021-07-19T14:30:38Z</time>
      </trkpt>
      <trkpt lat="48.90565" lon="7.86307">
        <ele>178.94</ele>
        <time>2021-07-19T14:30:39Z</time>
      </trkpt>
      <trkpt lat="48.90573" lon="7.86324">
        <ele>178.94</ele>
        <time>2021-07-19T14:30:40Z</time>
      </trkpt>
      <trkpt lat="48.90666" lon="7.8651">
        <ele>178.94</ele>
        <time>2021-07-19T14:30:49Z</time>
      </trkpt>
      <trkpt lat="48.90843" lon="7.86859">
        <ele>181.35</ele>
        <time>2021-07-19T14:31:03Z</time>
      </trkpt>
      <trkpt lat="48.91031" lon="7.87183">
        <ele>189.04</ele>
        <time>2021-07-19T14:31:17Z</time>
      </trkpt>
      <trkpt lat="48.91294" lon="7.87549">
        <ele>191.44</ele>
        <time>2021-07-19T14:31:34Z</time>
      </trkpt>
      <trkpt lat="48.91579" lon="7.87941">
        <ele>183.27</ele>
        <time>2021-07-19T14:31:52Z</time>
      </trkpt>
      <trkpt lat="48.91703" lon="7.88131">
        <ele>185.19</ele>
        <time>2021-07-19T14:32:02Z</time>
      </trkpt>
      <trkpt lat="48.91867" lon="7.88435">
        <ele>188.56</ele>
        <time>2021-07-19T14:32:17Z</time>
      </trkpt>
      <trkpt lat="48.92029" lon="7.88752">
        <ele>195.28</ele>
        <time>2021-07-19T14:32:32Z</time>
      </trkpt>
      <trkpt lat="48.92182" lon="7.89059">
        <ele>200.09</ele>
        <time>2021-07-19T14:32:48Z</time>
      </trkpt>
      <trkpt lat="48.92319" lon="7.89332">
        <ele>197.69</ele>
        <time>2021-07-19T14:32:58Z</time>
      </trkpt>
      <trkpt lat="48.92427" lon="7.89518">
        <ele>194.8</ele>
        <time>2021-07-19T14:33:06Z</time>
      </trkpt>
      <trkpt lat="48.92543" lon="7.89685">
        <ele>187.59</ele>
        <time>2021-07-19T14:33:15Z</time>
      </trkpt>
      <trkpt lat="48.92705" lon="7.89906">
        <ele>177.5</ele>
        <time>2021-07-19T14:33:25Z</time>
      </trkpt>
      <trkpt lat="48.92844" lon="7.90167">
        <ele>164.52</ele>
        <time>2021-07-19T14:33:35Z</time>
      </trkpt>
      <trkpt lat="48.9293" lon="7.90465">
        <ele>157.31</ele>
        <time>2021-07-19T14:33:44Z</time>
      </trkpt>
      <trkpt lat="48.9299" lon="7.90746">
        <ele>152.03</ele>
        <time>2021-07-19T14:33:53Z</time>
      </trkpt>
      <trkpt lat="48.93073" lon="7.91025">
        <ele>148.66</ele>
        <time>2021-07-19T14:34:03Z</time>
      </trkpt>
      <trkpt lat="48.93184" lon="7.91267">
        <ele>152.51</ele>
        <time>2021-07-19T14:34:14Z</time>
      </trkpt>
      <trkpt lat="48.93286" lon="7.91492">
        <ele>154.91</ele>
        <time>2021-07-19T14:34:25Z</time>
      </trkpt>
      <trkpt lat="48.93324" lon="7.91618">
        <ele>155.87</ele>
        <time>2021-07-19T14:34:32Z</time>
      </trkpt>
      <trkpt lat="48.93356" lon="7.91802">
        <ele>155.87</ele>
        <time>2021-07-19T14:34:42Z</time>
      </trkpt>
      <trkpt lat="48.93359" lon="7.92042">
        <ele>154.43</ele>
        <time>2021-07-19T14:34:50Z</time>
      </trkpt>
      <trkpt lat="48.93318" lon="7.92305">
        <ele>156.83</ele>
        <time>2021-07-19T14:35:00Z</time>
      </trkpt>
      <trkpt lat="48.93236" lon="7.92696">
        <ele>154.43</ele>
        <time>2021-07-19T14:35:13Z</time>
      </trkpt>
      <trkpt lat="48.93191" lon="7.9313">
        <ele>149.62</ele>
        <time>2021-07-19T14:35:26Z</time>
      </trkpt>
      <trkpt lat="48.93198" lon="7.93425">
        <ele>152.51</ele>
        <time>2021-07-19T14:35:37Z</time>
      </trkpt>
      <trkpt lat="48.93215" lon="7.93596">
        <ele>152.51</ele>
        <time>2021-07-19T14:35:45Z</time>
      </trkpt>
      <trkpt lat="48.93218" lon="7.93617">
        <ele>152.51</ele>
        <time>2021-07-19T14:35:47Z</time>
      </trkpt>
      <trkpt lat="48.9322" lon="7.93634">
        <ele>152.51</ele>
        <time>2021-07-19T14:35:48Z</time>
      </trkpt>
      <trkpt lat="48.9322" lon="7.93634">
        <ele>152.99</ele>
        <time>2021-07-19T14:35:49Z</time>
      </trkpt>
      <trkpt lat="48.93214" lon="7.93646">
        <ele>152.99</ele>
        <time>2021-07-19T14:35:50Z</time>
      </trkpt>
      <trkpt lat="48.93217" lon="7.93663">
        <ele>152.51</ele>
        <time>2021-07-19T14:35:51Z</time>
      </trkpt>
      <trkpt lat="48.93217" lon="7.93663">
        <ele>152.51</ele>
        <time>2021-07-19T14:35:52Z</time>
      </trkpt>
      <trkpt lat="48.93221" lon="7.9367">
        <ele>152.51</ele>
        <time>2021-07-19T14:35:53Z</time>
      </trkpt>
      <trkpt lat="48.93221" lon="7.9367">
        <ele>152.51</ele>
        <time>2021-07-19T14:35:54Z</time>
      </trkpt>
      <trkpt lat="48.93232" lon="7.93693">
        <ele>152.03</ele>
        <time>2021-07-19T14:35:55Z</time>
      </trkpt>
      <trkpt lat="48.93234" lon="7.93706">
        <ele>152.03</ele>
        <time>2021-07-19T14:35:56Z</time>
      </trkpt>
      <trkpt lat="48.93236" lon="7.93721">
        <ele>151.54</ele>
        <time>2021-07-19T14:35:57Z</time>
      </trkpt>
      <trkpt lat="48.93269" lon="7.93869">
        <ele>148.18</ele>
        <time>2021-07-19T14:36:05Z</time>
      </trkpt>
      <trkpt lat="48.93328" lon="7.94059">
        <ele>144.82</ele>
        <time>2021-07-19T14:36:13Z</time>
      </trkpt>
      <trkpt lat="48.93429" lon="7.94301">
        <ele>142.41</ele>
        <time>2021-07-19T14:36:22Z</time>
      </trkpt>
      <trkpt lat="48.93577" lon="7.94559">
        <ele>141.93</ele>
        <time>2021-07-19T14:36:32Z</time>
      </trkpt>
      <trkpt lat="48.93754" lon="7.94765">
        <ele>142.41</ele>
        <time>2021-07-19T14:36:42Z</time>
      </trkpt>
      <trkpt lat="48.93976" lon="7.94937">
        <ele>142.41</ele>
        <time>2021-07-19T14:36:54Z</time>
      </trkpt>
      <trkpt lat="48.94459" lon="7.95236">
        <ele>145.3</ele>
        <time>2021-07-19T14:37:19Z</time>
      </trkpt>
      <trkpt lat="48.94796" lon="7.95443">
        <ele>149.14</ele>
        <time>2021-07-19T14:37:36Z</time>
      </trkpt>
      <trkpt lat="48.95033" lon="7.95554">
        <ele>149.62</ele>
        <time>2021-07-19T14:37:48Z</time>
      </trkpt>
      <trkpt lat="48.95266" lon="7.95591">
        <ele>149.62</ele>
        <time>2021-07-19T14:37:59Z</time>
      </trkpt>
      <trkpt lat="48.95494" lon="7.95558">
        <ele>148.18</ele>
        <time>2021-07-19T14:38:10Z</time>
      </trkpt>
      <trkpt lat="48.95877" lon="7.95427">
        <ele>147.22</ele>
        <time>2021-07-19T14:38:29Z</time>
      </trkpt>
      <trkpt lat="48.96092" lon="7.95345">
        <ele>146.74</ele>
        <time>2021-07-19T14:38:41Z</time>
      </trkpt>
      <trkpt lat="48.96154" lon="7.95324">
        <ele>147.22</ele>
        <time>2021-07-19T14:38:47Z</time>
      </trkpt>
      <trkpt lat="48.9616" lon="7.95324">
        <ele>146.74</ele>
        <time>2021-07-19T14:38:48Z</time>
      </trkpt>
      <trkpt lat="48.96167" lon="7.95323">
        <ele>147.22</ele>
        <time>2021-07-19T14:38:49Z</time>
      </trkpt>
      <trkpt lat="48.96169" lon="7.95322">
        <ele>147.22</ele>
        <time>2021-07-19T14:38:50Z</time>
      </trkpt>
      <trkpt lat="48.96165" lon="7.95307">
        <ele>147.7</ele>
        <time>2021-07-19T14:38:51Z</time>
      </trkpt>
      <trkpt lat="48.96162" lon="7.95299">
        <ele>147.7</ele>
        <time>2021-07-19T14:38:52Z</time>
      </trkpt>
      <trkpt lat="48.9616" lon="7.95292">
        <ele>148.18</ele>
        <time>2021-07-19T14:38:53Z</time>
      </trkpt>
      <trkpt lat="48.96157" lon="7.9529">
        <ele>147.7</ele>
        <time>2021-07-19T14:38:54Z</time>
      </trkpt>
      <trkpt lat="48.9615" lon="7.95285">
        <ele>148.18</ele>
        <time>2021-07-19T14:38:55Z</time>
      </trkpt>
      <trkpt lat="48.96133" lon="7.95271">
        <ele>147.7</ele>
        <time>2021-07-19T14:38:57Z</time>
      </trkpt>
      <trkpt lat="48.96117" lon="7.95251">
        <ele>147.7</ele>
        <time>2021-07-19T14:38:58Z</time>
      </trkpt>
      <trkpt lat="48.96117" lon="7.95251">
        <ele>147.22</ele>
        <time>2021-07-19T14:38:59Z</time>
      </trkpt>
      <trkpt lat="48.96038" lon="7.95125">
        <ele>148.18</ele>
        <time>2021-07-19T14:39:08Z</time>
      </trkpt>
      <trkpt lat="48.95943" lon="7.94942">
        <ele>149.62</ele>
        <time>2021-07-19T14:39:17Z</time>
      </trkpt>
      <trkpt lat="48.95932" lon="7.94921">
        <ele>151.06</ele>
        <time>2021-07-19T14:39:18Z</time>
      </trkpt>
      <trkpt lat="48.95919" lon="7.94901">
        <ele>152.03</ele>
        <time>2021-07-19T14:39:19Z</time>
      </trkpt>
      <trkpt lat="48.95789" lon="7.94734">
        <ele>156.35</ele>
        <time>2021-07-19T14:39:28Z</time>
      </trkpt>
      <trkpt lat="48.95606" lon="7.94458">
        <ele>170.77</ele>
        <time>2021-07-19T14:39:42Z</time>
      </trkpt>
      <trkpt lat="48.95527" lon="7.94369">
        <ele>174.14</ele>
        <time>2021-07-19T14:39:49Z</time>
      </trkpt>
      <trkpt lat="48.95494" lon="7.94335">
        <ele>174.14</ele>
        <time>2021-07-19T14:39:56Z</time>
      </trkpt>
      <trkpt lat="48.95487" lon="7.94334">
        <ele>173.66</ele>
        <time>2021-07-19T14:40:07Z</time>
      </trkpt>
      <trkpt lat="48.95425" lon="7.94334">
        <ele>170.29</ele>
        <time>2021-07-19T14:40:23Z</time>
      </trkpt>
      <trkpt lat="48.95378" lon="7.94336">
        <ele>167.89</ele>
        <time>2021-07-19T14:40:32Z</time>
      </trkpt>
      <trkpt lat="48.95374" lon="7.94334">
        <ele>167.89</ele>
        <time>2021-07-19T14:40:33Z</time>
      </trkpt>
      <trkpt lat="48.9537" lon="7.94332">
        <ele>167.89</ele>
        <time>2021-07-19T14:40:34Z</time>
      </trkpt>
      <trkpt lat="48.95367" lon="7.9433">
        <ele>168.37</ele>
        <time>2021-07-19T14:40:35Z</time>
      </trkpt>
      <trkpt lat="48.95364" lon="7.94329">
        <ele>168.37</ele>
        <time>2021-07-19T14:40:36Z</time>
      </trkpt>
      <trkpt lat="48.95364" lon="7.94329">
        <ele>168.37</ele>
        <time>2021-07-19T14:40:55Z</time>
      </trkpt>
      <trkpt lat="48.95364" lon="7.94323">
        <ele>168.37</ele>
        <time>2021-07-19T14:41:09Z</time>
      </trkpt>
      <trkpt lat="48.95364" lon="7.9432">
        <ele>167.89</ele>
        <time>2021-07-19T14:41:10Z</time>
      </trkpt>
      <trkpt lat="48.95364" lon="7.94295">
        <ele>167.41</ele>
        <time>2021-07-19T14:41:14Z</time>
      </trkpt>
    </trkseg>
  </trk>
</gpx>